<?xml version="1.0" encoding="utf-8"?>
<gpx xmlns:xsi="http://www.w3.org/2001/XMLSchema-instance" xmlns:xsd="http://www.w3.org/2001/XMLSchema" version="1.1" creator="Shapelink.com" xmlns="http://www.topografix.com/GPX/1/1" xmlns:gpxtpx="http://www.garmin.com/xmlschemas/TrackPointExtension/v1">
  <metadata>
    <name>Løping 3.00 km, 2014-06-23</name>
    <desc></desc>
    <author><name>Mikael Blom</name></author> 
    <time>2014-06-23T11:38:58Z</time>
  </metadata>
  <trk>
    <name>Løping 3.00 km, 2014-06-23</name>
    <trkseg>
      <trkpt lat="59.9818106" lon="17.7382882">
        <ele>47.7225</ele>
        <time>2014-06-23T11:38:58Z</time>
      </trkpt>
      <trkpt lat="59.9818191" lon="17.7382819">
        <ele>47.7225</ele>
        <time>2014-06-23T11:38:59Z</time>
      </trkpt>
      <trkpt lat="59.9818344" lon="17.7382774">
        <ele>47.7225</ele>
        <time>2014-06-23T11:39:00Z</time>
      </trkpt>
      <trkpt lat="59.9818629" lon="17.7382618">
        <ele>47.7225</ele>
        <time>2014-06-23T11:39:01Z</time>
      </trkpt>
      <trkpt lat="59.9818887" lon="17.738251">
        <ele>47.2418</ele>
        <time>2014-06-23T11:39:02Z</time>
      </trkpt>
      <trkpt lat="59.9819172" lon="17.7382386">
        <ele>46.7612</ele>
        <time>2014-06-23T11:39:03Z</time>
      </trkpt>
      <trkpt lat="59.9819483" lon="17.7382204">
        <ele>46.2806</ele>
        <time>2014-06-23T11:39:04Z</time>
      </trkpt>
      <trkpt lat="59.9819805" lon="17.7381971">
        <ele>46.2806</ele>
        <time>2014-06-23T11:39:05Z</time>
      </trkpt>
      <trkpt lat="59.9820126" lon="17.7381743">
        <ele>46.7612</ele>
        <time>2014-06-23T11:39:06Z</time>
      </trkpt>
      <trkpt lat="59.9820458" lon="17.7381503">
        <ele>46.7612</ele>
        <time>2014-06-23T11:39:07Z</time>
      </trkpt>
      <trkpt lat="59.9820766" lon="17.738133">
        <ele>46.2806</ele>
        <time>2014-06-23T11:39:08Z</time>
      </trkpt>
      <trkpt lat="59.9821072" lon="17.73813">
        <ele>46.2806</ele>
        <time>2014-06-23T11:39:09Z</time>
      </trkpt>
      <trkpt lat="59.9821291" lon="17.7381286">
        <ele>46.2806</ele>
        <time>2014-06-23T11:39:10Z</time>
      </trkpt>
      <trkpt lat="59.9821496" lon="17.7381214">
        <ele>46.2806</ele>
        <time>2014-06-23T11:39:11Z</time>
      </trkpt>
      <trkpt lat="59.9821747" lon="17.7380997">
        <ele>45.7999</ele>
        <time>2014-06-23T11:39:12Z</time>
      </trkpt>
      <trkpt lat="59.9822035" lon="17.7380804">
        <ele>44.8386</ele>
        <time>2014-06-23T11:39:13Z</time>
      </trkpt>
      <trkpt lat="59.9822286" lon="17.7380728">
        <ele>44.358</ele>
        <time>2014-06-23T11:39:14Z</time>
      </trkpt>
      <trkpt lat="59.9822565" lon="17.7380628">
        <ele>43.8773</ele>
        <time>2014-06-23T11:39:15Z</time>
      </trkpt>
      <trkpt lat="59.9822892" lon="17.738053">
        <ele>43.3966</ele>
        <time>2014-06-23T11:39:16Z</time>
      </trkpt>
      <trkpt lat="59.9823232" lon="17.7380422">
        <ele>43.3966</ele>
        <time>2014-06-23T11:39:17Z</time>
      </trkpt>
      <trkpt lat="59.982356" lon="17.7380359">
        <ele>42.916</ele>
        <time>2014-06-23T11:39:18Z</time>
      </trkpt>
      <trkpt lat="59.9823922" lon="17.7380256">
        <ele>42.4354</ele>
        <time>2014-06-23T11:39:19Z</time>
      </trkpt>
      <trkpt lat="59.9824212" lon="17.7380286">
        <ele>42.4354</ele>
        <time>2014-06-23T11:39:20Z</time>
      </trkpt>
      <trkpt lat="59.982448" lon="17.738028">
        <ele>40.9934</ele>
        <time>2014-06-23T11:39:21Z</time>
      </trkpt>
      <trkpt lat="59.9824835" lon="17.7380298">
        <ele>41.474</ele>
        <time>2014-06-23T11:39:22Z</time>
      </trkpt>
      <trkpt lat="59.9825163" lon="17.7380259">
        <ele>41.474</ele>
        <time>2014-06-23T11:39:23Z</time>
      </trkpt>
      <trkpt lat="59.98256" lon="17.7380216">
        <ele>42.4354</ele>
        <time>2014-06-23T11:39:24Z</time>
      </trkpt>
      <trkpt lat="59.9825861" lon="17.7380224">
        <ele>41.474</ele>
        <time>2014-06-23T11:39:25Z</time>
      </trkpt>
      <trkpt lat="59.9826194" lon="17.7380296">
        <ele>42.4354</ele>
        <time>2014-06-23T11:39:26Z</time>
      </trkpt>
      <trkpt lat="59.9826579" lon="17.7380349">
        <ele>42.916</ele>
        <time>2014-06-23T11:39:27Z</time>
      </trkpt>
      <trkpt lat="59.9826816" lon="17.7380479">
        <ele>42.4354</ele>
        <time>2014-06-23T11:39:28Z</time>
      </trkpt>
      <trkpt lat="59.9827062" lon="17.7380546">
        <ele>42.916</ele>
        <time>2014-06-23T11:39:29Z</time>
      </trkpt>
      <trkpt lat="59.9827322" lon="17.7380658">
        <ele>42.4354</ele>
        <time>2014-06-23T11:39:30Z</time>
      </trkpt>
      <trkpt lat="59.9827634" lon="17.738069">
        <ele>42.916</ele>
        <time>2014-06-23T11:39:31Z</time>
      </trkpt>
      <trkpt lat="59.9827976" lon="17.7380728">
        <ele>43.3966</ele>
        <time>2014-06-23T11:39:32Z</time>
      </trkpt>
      <trkpt lat="59.9828315" lon="17.738086">
        <ele>43.8773</ele>
        <time>2014-06-23T11:39:33Z</time>
      </trkpt>
      <trkpt lat="59.982867" lon="17.738099">
        <ele>44.358</ele>
        <time>2014-06-23T11:39:34Z</time>
      </trkpt>
      <trkpt lat="59.9828997" lon="17.7381049">
        <ele>43.8773</ele>
        <time>2014-06-23T11:39:35Z</time>
      </trkpt>
      <trkpt lat="59.982931" lon="17.7381084">
        <ele>44.8386</ele>
        <time>2014-06-23T11:39:36Z</time>
      </trkpt>
      <trkpt lat="59.982961" lon="17.7381124">
        <ele>45.3192</ele>
        <time>2014-06-23T11:39:37Z</time>
      </trkpt>
      <trkpt lat="59.9829863" lon="17.7381205">
        <ele>45.3192</ele>
        <time>2014-06-23T11:39:38Z</time>
      </trkpt>
      <trkpt lat="59.9830138" lon="17.7381183">
        <ele>45.3192</ele>
        <time>2014-06-23T11:39:39Z</time>
      </trkpt>
      <trkpt lat="59.9830452" lon="17.7381214">
        <ele>45.3192</ele>
        <time>2014-06-23T11:39:40Z</time>
      </trkpt>
      <trkpt lat="59.9830711" lon="17.7381245">
        <ele>45.3192</ele>
        <time>2014-06-23T11:39:41Z</time>
      </trkpt>
      <trkpt lat="59.9831007" lon="17.7381302">
        <ele>45.7999</ele>
        <time>2014-06-23T11:39:42Z</time>
      </trkpt>
      <trkpt lat="59.9831339" lon="17.7381352">
        <ele>46.2806</ele>
        <time>2014-06-23T11:39:43Z</time>
      </trkpt>
      <trkpt lat="59.9831642" lon="17.7381335">
        <ele>46.2806</ele>
        <time>2014-06-23T11:39:44Z</time>
      </trkpt>
      <trkpt lat="59.9831962" lon="17.738133">
        <ele>47.2418</ele>
        <time>2014-06-23T11:39:45Z</time>
      </trkpt>
      <trkpt lat="59.9832222" lon="17.7381259">
        <ele>47.7225</ele>
        <time>2014-06-23T11:39:46Z</time>
      </trkpt>
      <trkpt lat="59.9832423" lon="17.7381269">
        <ele>47.7225</ele>
        <time>2014-06-23T11:39:47Z</time>
      </trkpt>
      <trkpt lat="59.9832572" lon="17.738129">
        <ele>48.2034</ele>
        <time>2014-06-23T11:39:48Z</time>
      </trkpt>
      <trkpt lat="59.9832709" lon="17.7381269">
        <ele>48.2034</ele>
        <time>2014-06-23T11:39:49Z</time>
      </trkpt>
      <trkpt lat="59.9832906" lon="17.7381208">
        <ele>47.2418</ele>
        <time>2014-06-23T11:39:50Z</time>
      </trkpt>
      <trkpt lat="59.9833208" lon="17.7381083">
        <ele>47.7225</ele>
        <time>2014-06-23T11:39:51Z</time>
      </trkpt>
      <trkpt lat="59.9833485" lon="17.7380946">
        <ele>48.2034</ele>
        <time>2014-06-23T11:39:52Z</time>
      </trkpt>
      <trkpt lat="59.9833809" lon="17.7380894">
        <ele>48.2034</ele>
        <time>2014-06-23T11:39:53Z</time>
      </trkpt>
      <trkpt lat="59.9834113" lon="17.7380861">
        <ele>48.2034</ele>
        <time>2014-06-23T11:39:54Z</time>
      </trkpt>
      <trkpt lat="59.9834361" lon="17.7380822">
        <ele>48.2034</ele>
        <time>2014-06-23T11:39:55Z</time>
      </trkpt>
      <trkpt lat="59.9834656" lon="17.7380816">
        <ele>48.2034</ele>
        <time>2014-06-23T11:39:56Z</time>
      </trkpt>
      <trkpt lat="59.9834877" lon="17.7380725">
        <ele>47.7225</ele>
        <time>2014-06-23T11:39:57Z</time>
      </trkpt>
      <trkpt lat="59.9835101" lon="17.7380734">
        <ele>47.7225</ele>
        <time>2014-06-23T11:39:58Z</time>
      </trkpt>
      <trkpt lat="59.9835329" lon="17.7380697">
        <ele>47.7225</ele>
        <time>2014-06-23T11:39:59Z</time>
      </trkpt>
      <trkpt lat="59.9835541" lon="17.738065">
        <ele>47.7225</ele>
        <time>2014-06-23T11:40:00Z</time>
      </trkpt>
      <trkpt lat="59.9835811" lon="17.7380537">
        <ele>47.2418</ele>
        <time>2014-06-23T11:40:01Z</time>
      </trkpt>
      <trkpt lat="59.9836135" lon="17.7380432">
        <ele>47.2418</ele>
        <time>2014-06-23T11:40:02Z</time>
      </trkpt>
      <trkpt lat="59.9836466" lon="17.7380337">
        <ele>46.7612</ele>
        <time>2014-06-23T11:40:03Z</time>
      </trkpt>
      <trkpt lat="59.9836774" lon="17.7380208">
        <ele>45.7999</ele>
        <time>2014-06-23T11:40:04Z</time>
      </trkpt>
      <trkpt lat="59.9837043" lon="17.7380152">
        <ele>46.2806</ele>
        <time>2014-06-23T11:40:05Z</time>
      </trkpt>
      <trkpt lat="59.9837354" lon="17.7380047">
        <ele>46.2806</ele>
        <time>2014-06-23T11:40:06Z</time>
      </trkpt>
      <trkpt lat="59.9837634" lon="17.7379956">
        <ele>45.3192</ele>
        <time>2014-06-23T11:40:07Z</time>
      </trkpt>
      <trkpt lat="59.983793" lon="17.737991">
        <ele>44.8386</ele>
        <time>2014-06-23T11:40:08Z</time>
      </trkpt>
      <trkpt lat="59.9838243" lon="17.7379788">
        <ele>45.3192</ele>
        <time>2014-06-23T11:40:09Z</time>
      </trkpt>
      <trkpt lat="59.9838533" lon="17.7379711">
        <ele>45.3192</ele>
        <time>2014-06-23T11:40:10Z</time>
      </trkpt>
      <trkpt lat="59.9838752" lon="17.7379599">
        <ele>44.358</ele>
        <time>2014-06-23T11:40:11Z</time>
      </trkpt>
      <trkpt lat="59.9838982" lon="17.7379477">
        <ele>43.8773</ele>
        <time>2014-06-23T11:40:12Z</time>
      </trkpt>
      <trkpt lat="59.9839285" lon="17.7379438">
        <ele>44.358</ele>
        <time>2014-06-23T11:40:13Z</time>
      </trkpt>
      <trkpt lat="59.9839481" lon="17.7379405">
        <ele>43.8773</ele>
        <time>2014-06-23T11:40:14Z</time>
      </trkpt>
      <trkpt lat="59.9839701" lon="17.7379446">
        <ele>43.8773</ele>
        <time>2014-06-23T11:40:15Z</time>
      </trkpt>
      <trkpt lat="59.9839937" lon="17.7379521">
        <ele>44.358</ele>
        <time>2014-06-23T11:40:16Z</time>
      </trkpt>
      <trkpt lat="59.9840167" lon="17.7379567">
        <ele>44.8386</ele>
        <time>2014-06-23T11:40:17Z</time>
      </trkpt>
      <trkpt lat="59.9840358" lon="17.73794">
        <ele>42.4354</ele>
        <time>2014-06-23T11:40:18Z</time>
      </trkpt>
      <trkpt lat="59.9840518" lon="17.737921">
        <ele>40.0321</ele>
        <time>2014-06-23T11:40:19Z</time>
      </trkpt>
      <trkpt lat="59.9840809" lon="17.7379197">
        <ele>40.5128</ele>
        <time>2014-06-23T11:40:20Z</time>
      </trkpt>
      <trkpt lat="59.9841094" lon="17.7379236">
        <ele>41.474</ele>
        <time>2014-06-23T11:40:21Z</time>
      </trkpt>
      <trkpt lat="59.9841359" lon="17.7379291">
        <ele>42.4354</ele>
        <time>2014-06-23T11:40:22Z</time>
      </trkpt>
      <trkpt lat="59.9841694" lon="17.7379373">
        <ele>43.8773</ele>
        <time>2014-06-23T11:40:23Z</time>
      </trkpt>
      <trkpt lat="59.9841952" lon="17.7379438">
        <ele>43.8773</ele>
        <time>2014-06-23T11:40:24Z</time>
      </trkpt>
      <trkpt lat="59.9842269" lon="17.7379489">
        <ele>44.358</ele>
        <time>2014-06-23T11:40:25Z</time>
      </trkpt>
      <trkpt lat="59.9842579" lon="17.7379586">
        <ele>44.8386</ele>
        <time>2014-06-23T11:40:26Z</time>
      </trkpt>
      <trkpt lat="59.9842897" lon="17.7379686">
        <ele>45.7999</ele>
        <time>2014-06-23T11:40:27Z</time>
      </trkpt>
      <trkpt lat="59.9843156" lon="17.737979">
        <ele>45.3192</ele>
        <time>2014-06-23T11:40:28Z</time>
      </trkpt>
      <trkpt lat="59.9843509" lon="17.7379944">
        <ele>46.7612</ele>
        <time>2014-06-23T11:40:29Z</time>
      </trkpt>
      <trkpt lat="59.9843743" lon="17.738008">
        <ele>47.2418</ele>
        <time>2014-06-23T11:40:30Z</time>
      </trkpt>
      <trkpt lat="59.9843991" lon="17.7380178">
        <ele>48.2034</ele>
        <time>2014-06-23T11:40:31Z</time>
      </trkpt>
      <trkpt lat="59.9844234" lon="17.7380246">
        <ele>49.1646</ele>
        <time>2014-06-23T11:40:32Z</time>
      </trkpt>
      <trkpt lat="59.9844589" lon="17.7380316">
        <ele>51.0872</ele>
        <time>2014-06-23T11:40:33Z</time>
      </trkpt>
      <trkpt lat="59.9844975" lon="17.7380308">
        <ele>51.5679</ele>
        <time>2014-06-23T11:40:34Z</time>
      </trkpt>
      <trkpt lat="59.9845533" lon="17.7380325">
        <ele>53.9712</ele>
        <time>2014-06-23T11:40:35Z</time>
      </trkpt>
      <trkpt lat="59.9846006" lon="17.7380283">
        <ele>54.9324</ele>
        <time>2014-06-23T11:40:36Z</time>
      </trkpt>
      <trkpt lat="59.9846342" lon="17.7380312">
        <ele>55.8938</ele>
        <time>2014-06-23T11:40:37Z</time>
      </trkpt>
      <trkpt lat="59.9846734" lon="17.7380467">
        <ele>57.3358</ele>
        <time>2014-06-23T11:40:38Z</time>
      </trkpt>
      <trkpt lat="59.984703" lon="17.7380655">
        <ele>58.2971</ele>
        <time>2014-06-23T11:40:39Z</time>
      </trkpt>
      <trkpt lat="59.9847286" lon="17.7380782">
        <ele>57.8165</ele>
        <time>2014-06-23T11:40:40Z</time>
      </trkpt>
      <trkpt lat="59.9847531" lon="17.7380909">
        <ele>57.8165</ele>
        <time>2014-06-23T11:40:41Z</time>
      </trkpt>
      <trkpt lat="59.9847824" lon="17.7381023">
        <ele>58.7777</ele>
        <time>2014-06-23T11:40:42Z</time>
      </trkpt>
      <trkpt lat="59.9848142" lon="17.7381137">
        <ele>60.2197</ele>
        <time>2014-06-23T11:40:43Z</time>
      </trkpt>
      <trkpt lat="59.9848393" lon="17.7381247">
        <ele>60.2197</ele>
        <time>2014-06-23T11:40:44Z</time>
      </trkpt>
      <trkpt lat="59.9848662" lon="17.7381332">
        <ele>60.2197</ele>
        <time>2014-06-23T11:40:45Z</time>
      </trkpt>
      <trkpt lat="59.9848845" lon="17.7381418">
        <ele>58.7777</ele>
        <time>2014-06-23T11:40:46Z</time>
      </trkpt>
      <trkpt lat="59.9849075" lon="17.7381437">
        <ele>58.2971</ele>
        <time>2014-06-23T11:40:47Z</time>
      </trkpt>
      <trkpt lat="59.9849383" lon="17.7381479">
        <ele>57.8165</ele>
        <time>2014-06-23T11:40:48Z</time>
      </trkpt>
      <trkpt lat="59.984962" lon="17.738157">
        <ele>57.8165</ele>
        <time>2014-06-23T11:40:49Z</time>
      </trkpt>
      <trkpt lat="59.984988" lon="17.7381634">
        <ele>58.2971</ele>
        <time>2014-06-23T11:40:50Z</time>
      </trkpt>
      <trkpt lat="59.9850132" lon="17.7381607">
        <ele>57.3358</ele>
        <time>2014-06-23T11:40:51Z</time>
      </trkpt>
      <trkpt lat="59.9850404" lon="17.7381628">
        <ele>57.8165</ele>
        <time>2014-06-23T11:40:52Z</time>
      </trkpt>
      <trkpt lat="59.98506" lon="17.7381613">
        <ele>56.3745</ele>
        <time>2014-06-23T11:40:53Z</time>
      </trkpt>
      <trkpt lat="59.9850837" lon="17.7381634">
        <ele>56.8551</ele>
        <time>2014-06-23T11:40:54Z</time>
      </trkpt>
      <trkpt lat="59.9851127" lon="17.7381614">
        <ele>56.3745</ele>
        <time>2014-06-23T11:40:55Z</time>
      </trkpt>
      <trkpt lat="59.9851429" lon="17.738164">
        <ele>56.3745</ele>
        <time>2014-06-23T11:40:56Z</time>
      </trkpt>
      <trkpt lat="59.9851737" lon="17.7381689">
        <ele>56.3745</ele>
        <time>2014-06-23T11:40:57Z</time>
      </trkpt>
      <trkpt lat="59.9851984" lon="17.7381707">
        <ele>55.8938</ele>
        <time>2014-06-23T11:40:58Z</time>
      </trkpt>
      <trkpt lat="59.985218" lon="17.7381737">
        <ele>54.9324</ele>
        <time>2014-06-23T11:40:59Z</time>
      </trkpt>
      <trkpt lat="59.9852357" lon="17.7381841">
        <ele>54.4518</ele>
        <time>2014-06-23T11:41:00Z</time>
      </trkpt>
      <trkpt lat="59.9852593" lon="17.738194">
        <ele>53.9712</ele>
        <time>2014-06-23T11:41:01Z</time>
      </trkpt>
      <trkpt lat="59.9852831" lon="17.7382012">
        <ele>53.9712</ele>
        <time>2014-06-23T11:41:02Z</time>
      </trkpt>
      <trkpt lat="59.9853076" lon="17.7382018">
        <ele>53.4905</ele>
        <time>2014-06-23T11:41:03Z</time>
      </trkpt>
      <trkpt lat="59.9853288" lon="17.7382007">
        <ele>53.0098</ele>
        <time>2014-06-23T11:41:04Z</time>
      </trkpt>
      <trkpt lat="59.9853511" lon="17.7382095">
        <ele>52.5292</ele>
        <time>2014-06-23T11:41:05Z</time>
      </trkpt>
      <trkpt lat="59.9853774" lon="17.7382054">
        <ele>52.0486</ele>
        <time>2014-06-23T11:41:06Z</time>
      </trkpt>
      <trkpt lat="59.9853936" lon="17.7382063">
        <ele>52.0486</ele>
        <time>2014-06-23T11:41:07Z</time>
      </trkpt>
      <trkpt lat="59.9854096" lon="17.7382048">
        <ele>51.5679</ele>
        <time>2014-06-23T11:41:08Z</time>
      </trkpt>
      <trkpt lat="59.9854231" lon="17.7381995">
        <ele>51.5679</ele>
        <time>2014-06-23T11:41:09Z</time>
      </trkpt>
      <trkpt lat="59.9854361" lon="17.7381733">
        <ele>50.6066</ele>
        <time>2014-06-23T11:41:10Z</time>
      </trkpt>
      <trkpt lat="59.9854499" lon="17.7381364">
        <ele>50.126</ele>
        <time>2014-06-23T11:41:11Z</time>
      </trkpt>
      <trkpt lat="59.9854615" lon="17.738094">
        <ele>49.1646</ele>
        <time>2014-06-23T11:41:12Z</time>
      </trkpt>
      <trkpt lat="59.9854718" lon="17.7380511">
        <ele>48.684</ele>
        <time>2014-06-23T11:41:13Z</time>
      </trkpt>
      <trkpt lat="59.9854752" lon="17.7380104">
        <ele>47.7225</ele>
        <time>2014-06-23T11:41:14Z</time>
      </trkpt>
      <trkpt lat="59.9854802" lon="17.7379609">
        <ele>47.2418</ele>
        <time>2014-06-23T11:41:15Z</time>
      </trkpt>
      <trkpt lat="59.9854871" lon="17.7379083">
        <ele>46.2806</ele>
        <time>2014-06-23T11:41:16Z</time>
      </trkpt>
      <trkpt lat="59.9854941" lon="17.7378536">
        <ele>45.7999</ele>
        <time>2014-06-23T11:41:17Z</time>
      </trkpt>
      <trkpt lat="59.9855012" lon="17.7378018">
        <ele>45.7999</ele>
        <time>2014-06-23T11:41:18Z</time>
      </trkpt>
      <trkpt lat="59.9855096" lon="17.7377545">
        <ele>45.3192</ele>
        <time>2014-06-23T11:41:19Z</time>
      </trkpt>
      <trkpt lat="59.9855184" lon="17.7377168">
        <ele>45.3192</ele>
        <time>2014-06-23T11:41:20Z</time>
      </trkpt>
      <trkpt lat="59.9855287" lon="17.7376706">
        <ele>44.8386</ele>
        <time>2014-06-23T11:41:21Z</time>
      </trkpt>
      <trkpt lat="59.9855392" lon="17.7376232">
        <ele>44.8386</ele>
        <time>2014-06-23T11:41:22Z</time>
      </trkpt>
      <trkpt lat="59.9855509" lon="17.7375806">
        <ele>44.8386</ele>
        <time>2014-06-23T11:41:23Z</time>
      </trkpt>
      <trkpt lat="59.9855636" lon="17.7375362">
        <ele>44.358</ele>
        <time>2014-06-23T11:41:24Z</time>
      </trkpt>
      <trkpt lat="59.9855809" lon="17.7374906">
        <ele>43.8773</ele>
        <time>2014-06-23T11:41:25Z</time>
      </trkpt>
      <trkpt lat="59.9855975" lon="17.7374495">
        <ele>43.3966</ele>
        <time>2014-06-23T11:41:26Z</time>
      </trkpt>
      <trkpt lat="59.9856166" lon="17.7374175">
        <ele>43.3966</ele>
        <time>2014-06-23T11:41:27Z</time>
      </trkpt>
      <trkpt lat="59.9856365" lon="17.7373862">
        <ele>43.3966</ele>
        <time>2014-06-23T11:41:28Z</time>
      </trkpt>
      <trkpt lat="59.9856587" lon="17.7373528">
        <ele>42.916</ele>
        <time>2014-06-23T11:41:29Z</time>
      </trkpt>
      <trkpt lat="59.9856814" lon="17.7373147">
        <ele>43.3966</ele>
        <time>2014-06-23T11:41:30Z</time>
      </trkpt>
      <trkpt lat="59.985705" lon="17.7372705">
        <ele>42.916</ele>
        <time>2014-06-23T11:41:31Z</time>
      </trkpt>
      <trkpt lat="59.9857282" lon="17.7372297">
        <ele>42.916</ele>
        <time>2014-06-23T11:41:32Z</time>
      </trkpt>
      <trkpt lat="59.9857505" lon="17.7371959">
        <ele>42.4354</ele>
        <time>2014-06-23T11:41:33Z</time>
      </trkpt>
      <trkpt lat="59.9857723" lon="17.7371616">
        <ele>42.4354</ele>
        <time>2014-06-23T11:41:34Z</time>
      </trkpt>
      <trkpt lat="59.9857914" lon="17.7371263">
        <ele>41.9547</ele>
        <time>2014-06-23T11:41:35Z</time>
      </trkpt>
      <trkpt lat="59.9858117" lon="17.7370894">
        <ele>41.9547</ele>
        <time>2014-06-23T11:41:36Z</time>
      </trkpt>
      <trkpt lat="59.9858304" lon="17.7370593">
        <ele>41.9547</ele>
        <time>2014-06-23T11:41:37Z</time>
      </trkpt>
      <trkpt lat="59.9858499" lon="17.7370191">
        <ele>41.9547</ele>
        <time>2014-06-23T11:41:38Z</time>
      </trkpt>
      <trkpt lat="59.9858701" lon="17.7369771">
        <ele>41.474</ele>
        <time>2014-06-23T11:41:39Z</time>
      </trkpt>
      <trkpt lat="59.9858903" lon="17.736944">
        <ele>40.9934</ele>
        <time>2014-06-23T11:41:40Z</time>
      </trkpt>
      <trkpt lat="59.9859126" lon="17.7369024">
        <ele>41.474</ele>
        <time>2014-06-23T11:41:41Z</time>
      </trkpt>
      <trkpt lat="59.9859368" lon="17.7368597">
        <ele>41.474</ele>
        <time>2014-06-23T11:41:42Z</time>
      </trkpt>
      <trkpt lat="59.9859556" lon="17.7368227">
        <ele>40.5128</ele>
        <time>2014-06-23T11:41:43Z</time>
      </trkpt>
      <trkpt lat="59.9859743" lon="17.7367853">
        <ele>40.5128</ele>
        <time>2014-06-23T11:41:44Z</time>
      </trkpt>
      <trkpt lat="59.985993" lon="17.7367571">
        <ele>40.5128</ele>
        <time>2014-06-23T11:41:45Z</time>
      </trkpt>
      <trkpt lat="59.9860121" lon="17.73673">
        <ele>40.0321</ele>
        <time>2014-06-23T11:41:46Z</time>
      </trkpt>
      <trkpt lat="59.9860312" lon="17.7366862">
        <ele>39.5513</ele>
        <time>2014-06-23T11:41:47Z</time>
      </trkpt>
      <trkpt lat="59.9860492" lon="17.7366529">
        <ele>39.5513</ele>
        <time>2014-06-23T11:41:48Z</time>
      </trkpt>
      <trkpt lat="59.9860681" lon="17.736619">
        <ele>40.0321</ele>
        <time>2014-06-23T11:41:49Z</time>
      </trkpt>
      <trkpt lat="59.9860867" lon="17.7365892">
        <ele>39.5513</ele>
        <time>2014-06-23T11:41:50Z</time>
      </trkpt>
      <trkpt lat="59.9861048" lon="17.7365591">
        <ele>39.0707</ele>
        <time>2014-06-23T11:41:51Z</time>
      </trkpt>
      <trkpt lat="59.9861264" lon="17.7365323">
        <ele>39.0707</ele>
        <time>2014-06-23T11:41:52Z</time>
      </trkpt>
      <trkpt lat="59.9861457" lon="17.7365017">
        <ele>38.5901</ele>
        <time>2014-06-23T11:41:53Z</time>
      </trkpt>
      <trkpt lat="59.9861644" lon="17.7364772">
        <ele>38.1094</ele>
        <time>2014-06-23T11:41:54Z</time>
      </trkpt>
      <trkpt lat="59.9861844" lon="17.7364491">
        <ele>38.1094</ele>
        <time>2014-06-23T11:41:55Z</time>
      </trkpt>
      <trkpt lat="59.9862058" lon="17.7364233">
        <ele>38.1094</ele>
        <time>2014-06-23T11:41:56Z</time>
      </trkpt>
      <trkpt lat="59.9862285" lon="17.7363959">
        <ele>37.6287</ele>
        <time>2014-06-23T11:41:57Z</time>
      </trkpt>
      <trkpt lat="59.9862522" lon="17.7363686">
        <ele>37.6287</ele>
        <time>2014-06-23T11:41:58Z</time>
      </trkpt>
      <trkpt lat="59.9862726" lon="17.7363383">
        <ele>38.1094</ele>
        <time>2014-06-23T11:41:59Z</time>
      </trkpt>
      <trkpt lat="59.9862942" lon="17.736308">
        <ele>37.6287</ele>
        <time>2014-06-23T11:42:00Z</time>
      </trkpt>
      <trkpt lat="59.9863146" lon="17.7362732">
        <ele>37.6287</ele>
        <time>2014-06-23T11:42:01Z</time>
      </trkpt>
      <trkpt lat="59.9863377" lon="17.7362357">
        <ele>37.6287</ele>
        <time>2014-06-23T11:42:02Z</time>
      </trkpt>
      <trkpt lat="59.9863615" lon="17.7361981">
        <ele>37.6287</ele>
        <time>2014-06-23T11:42:03Z</time>
      </trkpt>
      <trkpt lat="59.9863835" lon="17.736165">
        <ele>37.6287</ele>
        <time>2014-06-23T11:42:04Z</time>
      </trkpt>
      <trkpt lat="59.9864036" lon="17.7361332">
        <ele>37.1481</ele>
        <time>2014-06-23T11:42:05Z</time>
      </trkpt>
      <trkpt lat="59.9864213" lon="17.7360955">
        <ele>37.1481</ele>
        <time>2014-06-23T11:42:06Z</time>
      </trkpt>
      <trkpt lat="59.9864363" lon="17.7360539">
        <ele>36.6675</ele>
        <time>2014-06-23T11:42:07Z</time>
      </trkpt>
      <trkpt lat="59.9864527" lon="17.7360099">
        <ele>36.6675</ele>
        <time>2014-06-23T11:42:08Z</time>
      </trkpt>
      <trkpt lat="59.9864674" lon="17.7359597">
        <ele>36.6675</ele>
        <time>2014-06-23T11:42:09Z</time>
      </trkpt>
      <trkpt lat="59.9864813" lon="17.7359127">
        <ele>36.1868</ele>
        <time>2014-06-23T11:42:10Z</time>
      </trkpt>
      <trkpt lat="59.9864928" lon="17.7358613">
        <ele>36.1868</ele>
        <time>2014-06-23T11:42:11Z</time>
      </trkpt>
      <trkpt lat="59.9865036" lon="17.7358161">
        <ele>36.1868</ele>
        <time>2014-06-23T11:42:12Z</time>
      </trkpt>
      <trkpt lat="59.9865177" lon="17.7357676">
        <ele>36.1868</ele>
        <time>2014-06-23T11:42:13Z</time>
      </trkpt>
      <trkpt lat="59.9865316" lon="17.7357201">
        <ele>36.6675</ele>
        <time>2014-06-23T11:42:14Z</time>
      </trkpt>
      <trkpt lat="59.9865436" lon="17.7356675">
        <ele>36.6675</ele>
        <time>2014-06-23T11:42:15Z</time>
      </trkpt>
      <trkpt lat="59.9865546" lon="17.7356144">
        <ele>37.1481</ele>
        <time>2014-06-23T11:42:16Z</time>
      </trkpt>
      <trkpt lat="59.9865643" lon="17.7355703">
        <ele>36.6675</ele>
        <time>2014-06-23T11:42:17Z</time>
      </trkpt>
      <trkpt lat="59.9865757" lon="17.7355205">
        <ele>37.1481</ele>
        <time>2014-06-23T11:42:18Z</time>
      </trkpt>
      <trkpt lat="59.9865876" lon="17.7354661">
        <ele>37.1481</ele>
        <time>2014-06-23T11:42:19Z</time>
      </trkpt>
      <trkpt lat="59.986598" lon="17.7354097">
        <ele>37.6287</ele>
        <time>2014-06-23T11:42:20Z</time>
      </trkpt>
      <trkpt lat="59.9866094" lon="17.7353506">
        <ele>37.6287</ele>
        <time>2014-06-23T11:42:21Z</time>
      </trkpt>
      <trkpt lat="59.9866202" lon="17.7352967">
        <ele>37.1481</ele>
        <time>2014-06-23T11:42:22Z</time>
      </trkpt>
      <trkpt lat="59.9866337" lon="17.7352489">
        <ele>37.6287</ele>
        <time>2014-06-23T11:42:23Z</time>
      </trkpt>
      <trkpt lat="59.9866424" lon="17.7352009">
        <ele>37.6287</ele>
        <time>2014-06-23T11:42:24Z</time>
      </trkpt>
      <trkpt lat="59.9866508" lon="17.7351547">
        <ele>38.1094</ele>
        <time>2014-06-23T11:42:25Z</time>
      </trkpt>
      <trkpt lat="59.9866615" lon="17.7351111">
        <ele>38.1094</ele>
        <time>2014-06-23T11:42:26Z</time>
      </trkpt>
      <trkpt lat="59.9866724" lon="17.7350584">
        <ele>38.1094</ele>
        <time>2014-06-23T11:42:27Z</time>
      </trkpt>
      <trkpt lat="59.9866844" lon="17.7349994">
        <ele>38.1094</ele>
        <time>2014-06-23T11:42:28Z</time>
      </trkpt>
      <trkpt lat="59.9866921" lon="17.734941">
        <ele>38.1094</ele>
        <time>2014-06-23T11:42:29Z</time>
      </trkpt>
      <trkpt lat="59.9866974" lon="17.7348788">
        <ele>38.1094</ele>
        <time>2014-06-23T11:42:30Z</time>
      </trkpt>
      <trkpt lat="59.9867078" lon="17.7348198">
        <ele>38.5901</ele>
        <time>2014-06-23T11:42:31Z</time>
      </trkpt>
      <trkpt lat="59.9867223" lon="17.7347752">
        <ele>38.1094</ele>
        <time>2014-06-23T11:42:32Z</time>
      </trkpt>
      <trkpt lat="59.9867362" lon="17.7347246">
        <ele>38.5901</ele>
        <time>2014-06-23T11:42:33Z</time>
      </trkpt>
      <trkpt lat="59.9867456" lon="17.734673">
        <ele>38.1094</ele>
        <time>2014-06-23T11:42:34Z</time>
      </trkpt>
      <trkpt lat="59.9867573" lon="17.7346295">
        <ele>37.6287</ele>
        <time>2014-06-23T11:42:35Z</time>
      </trkpt>
      <trkpt lat="59.9867689" lon="17.734585">
        <ele>37.6287</ele>
        <time>2014-06-23T11:42:36Z</time>
      </trkpt>
      <trkpt lat="59.9867789" lon="17.7345376">
        <ele>37.6287</ele>
        <time>2014-06-23T11:42:37Z</time>
      </trkpt>
      <trkpt lat="59.9867902" lon="17.7344866">
        <ele>37.6287</ele>
        <time>2014-06-23T11:42:38Z</time>
      </trkpt>
      <trkpt lat="59.9868026" lon="17.734431">
        <ele>37.1481</ele>
        <time>2014-06-23T11:42:39Z</time>
      </trkpt>
      <trkpt lat="59.986814" lon="17.7343799">
        <ele>37.1481</ele>
        <time>2014-06-23T11:42:40Z</time>
      </trkpt>
      <trkpt lat="59.9868259" lon="17.7343377">
        <ele>36.6675</ele>
        <time>2014-06-23T11:42:41Z</time>
      </trkpt>
      <trkpt lat="59.9868366" lon="17.7342882">
        <ele>36.6675</ele>
        <time>2014-06-23T11:42:42Z</time>
      </trkpt>
      <trkpt lat="59.9868488" lon="17.7342457">
        <ele>36.1868</ele>
        <time>2014-06-23T11:42:43Z</time>
      </trkpt>
      <trkpt lat="59.9868601" lon="17.7341949">
        <ele>36.1868</ele>
        <time>2014-06-23T11:42:44Z</time>
      </trkpt>
      <trkpt lat="59.9868734" lon="17.7341494">
        <ele>36.1868</ele>
        <time>2014-06-23T11:42:45Z</time>
      </trkpt>
      <trkpt lat="59.98689" lon="17.7341033">
        <ele>35.7061</ele>
        <time>2014-06-23T11:42:46Z</time>
      </trkpt>
      <trkpt lat="59.9869046" lon="17.7340595">
        <ele>35.2255</ele>
        <time>2014-06-23T11:42:47Z</time>
      </trkpt>
      <trkpt lat="59.9869181" lon="17.7340204">
        <ele>35.2255</ele>
        <time>2014-06-23T11:42:48Z</time>
      </trkpt>
      <trkpt lat="59.98693" lon="17.7339705">
        <ele>34.7449</ele>
        <time>2014-06-23T11:42:49Z</time>
      </trkpt>
      <trkpt lat="59.9869383" lon="17.7339221">
        <ele>33.7834</ele>
        <time>2014-06-23T11:42:50Z</time>
      </trkpt>
      <trkpt lat="59.9869502" lon="17.7338765">
        <ele>32.8223</ele>
        <time>2014-06-23T11:42:51Z</time>
      </trkpt>
      <trkpt lat="59.9869626" lon="17.7338354">
        <ele>32.8223</ele>
        <time>2014-06-23T11:42:52Z</time>
      </trkpt>
      <trkpt lat="59.9869725" lon="17.7337931">
        <ele>32.3416</ele>
        <time>2014-06-23T11:42:53Z</time>
      </trkpt>
      <trkpt lat="59.9869853" lon="17.7337557">
        <ele>32.3416</ele>
        <time>2014-06-23T11:42:54Z</time>
      </trkpt>
      <trkpt lat="59.9869998" lon="17.7337168">
        <ele>32.3416</ele>
        <time>2014-06-23T11:42:55Z</time>
      </trkpt>
      <trkpt lat="59.9870134" lon="17.7336723">
        <ele>31.3801</ele>
        <time>2014-06-23T11:42:56Z</time>
      </trkpt>
      <trkpt lat="59.9870282" lon="17.7336219">
        <ele>30.4188</ele>
        <time>2014-06-23T11:42:57Z</time>
      </trkpt>
      <trkpt lat="59.987041" lon="17.7335703">
        <ele>30.4188</ele>
        <time>2014-06-23T11:42:58Z</time>
      </trkpt>
      <trkpt lat="59.9870534" lon="17.7335163">
        <ele>30.4188</ele>
        <time>2014-06-23T11:42:59Z</time>
      </trkpt>
      <trkpt lat="59.9870676" lon="17.7334636">
        <ele>30.4188</ele>
        <time>2014-06-23T11:43:00Z</time>
      </trkpt>
      <trkpt lat="59.9870843" lon="17.7334139">
        <ele>29.9381</ele>
        <time>2014-06-23T11:43:01Z</time>
      </trkpt>
      <trkpt lat="59.9870977" lon="17.7333682">
        <ele>29.9381</ele>
        <time>2014-06-23T11:43:02Z</time>
      </trkpt>
      <trkpt lat="59.9871096" lon="17.7333191">
        <ele>29.9381</ele>
        <time>2014-06-23T11:43:03Z</time>
      </trkpt>
      <trkpt lat="59.9871226" lon="17.7332631">
        <ele>29.9381</ele>
        <time>2014-06-23T11:43:04Z</time>
      </trkpt>
      <trkpt lat="59.9871342" lon="17.7332087">
        <ele>29.9381</ele>
        <time>2014-06-23T11:43:05Z</time>
      </trkpt>
      <trkpt lat="59.9871455" lon="17.7331577">
        <ele>29.9381</ele>
        <time>2014-06-23T11:43:06Z</time>
      </trkpt>
      <trkpt lat="59.9871565" lon="17.7331129">
        <ele>29.4575</ele>
        <time>2014-06-23T11:43:07Z</time>
      </trkpt>
      <trkpt lat="59.9871667" lon="17.7330649">
        <ele>28.9769</ele>
        <time>2014-06-23T11:43:08Z</time>
      </trkpt>
      <trkpt lat="59.9871764" lon="17.7330102">
        <ele>29.4575</ele>
        <time>2014-06-23T11:43:09Z</time>
      </trkpt>
      <trkpt lat="59.9871873" lon="17.7329579">
        <ele>30.4188</ele>
        <time>2014-06-23T11:43:10Z</time>
      </trkpt>
      <trkpt lat="59.9871994" lon="17.7329072">
        <ele>30.4188</ele>
        <time>2014-06-23T11:43:11Z</time>
      </trkpt>
      <trkpt lat="59.9872165" lon="17.7328555">
        <ele>30.4188</ele>
        <time>2014-06-23T11:43:12Z</time>
      </trkpt>
      <trkpt lat="59.9872294" lon="17.7328018">
        <ele>30.4188</ele>
        <time>2014-06-23T11:43:13Z</time>
      </trkpt>
      <trkpt lat="59.9872408" lon="17.7327484">
        <ele>30.4188</ele>
        <time>2014-06-23T11:43:14Z</time>
      </trkpt>
      <trkpt lat="59.9872558" lon="17.7326912">
        <ele>30.8995</ele>
        <time>2014-06-23T11:43:15Z</time>
      </trkpt>
      <trkpt lat="59.9872697" lon="17.7326307">
        <ele>30.8995</ele>
        <time>2014-06-23T11:43:16Z</time>
      </trkpt>
      <trkpt lat="59.987282" lon="17.7325687">
        <ele>31.3801</ele>
        <time>2014-06-23T11:43:17Z</time>
      </trkpt>
      <trkpt lat="59.9872982" lon="17.7325171">
        <ele>31.3801</ele>
        <time>2014-06-23T11:43:18Z</time>
      </trkpt>
      <trkpt lat="59.9873148" lon="17.7324709">
        <ele>30.8995</ele>
        <time>2014-06-23T11:43:19Z</time>
      </trkpt>
      <trkpt lat="59.9873297" lon="17.7324208">
        <ele>30.8995</ele>
        <time>2014-06-23T11:43:20Z</time>
      </trkpt>
      <trkpt lat="59.9873427" lon="17.7323746">
        <ele>30.8995</ele>
        <time>2014-06-23T11:43:21Z</time>
      </trkpt>
      <trkpt lat="59.987357" lon="17.7323253">
        <ele>30.4188</ele>
        <time>2014-06-23T11:43:22Z</time>
      </trkpt>
      <trkpt lat="59.9873724" lon="17.7322799">
        <ele>30.4188</ele>
        <time>2014-06-23T11:43:23Z</time>
      </trkpt>
      <trkpt lat="59.9873872" lon="17.7322364">
        <ele>29.9381</ele>
        <time>2014-06-23T11:43:24Z</time>
      </trkpt>
      <trkpt lat="59.9874022" lon="17.7321885">
        <ele>29.9381</ele>
        <time>2014-06-23T11:43:25Z</time>
      </trkpt>
      <trkpt lat="59.9874164" lon="17.7321426">
        <ele>29.9381</ele>
        <time>2014-06-23T11:43:26Z</time>
      </trkpt>
      <trkpt lat="59.98743" lon="17.7320997">
        <ele>29.9381</ele>
        <time>2014-06-23T11:43:27Z</time>
      </trkpt>
      <trkpt lat="59.9874426" lon="17.7320458">
        <ele>30.4188</ele>
        <time>2014-06-23T11:43:28Z</time>
      </trkpt>
      <trkpt lat="59.9874557" lon="17.731998">
        <ele>30.4188</ele>
        <time>2014-06-23T11:43:29Z</time>
      </trkpt>
      <trkpt lat="59.9874713" lon="17.7319559">
        <ele>30.4188</ele>
        <time>2014-06-23T11:43:30Z</time>
      </trkpt>
      <trkpt lat="59.9874869" lon="17.7319108">
        <ele>30.4188</ele>
        <time>2014-06-23T11:43:31Z</time>
      </trkpt>
      <trkpt lat="59.9875032" lon="17.7318685">
        <ele>30.4188</ele>
        <time>2014-06-23T11:43:32Z</time>
      </trkpt>
      <trkpt lat="59.9875191" lon="17.7318251">
        <ele>30.4188</ele>
        <time>2014-06-23T11:43:33Z</time>
      </trkpt>
      <trkpt lat="59.9875371" lon="17.7317834">
        <ele>29.9381</ele>
        <time>2014-06-23T11:43:34Z</time>
      </trkpt>
      <trkpt lat="59.9875577" lon="17.7317472">
        <ele>29.9381</ele>
        <time>2014-06-23T11:43:35Z</time>
      </trkpt>
      <trkpt lat="59.9875859" lon="17.7317126">
        <ele>29.4575</ele>
        <time>2014-06-23T11:43:36Z</time>
      </trkpt>
      <trkpt lat="59.9876121" lon="17.7316789">
        <ele>28.4962</ele>
        <time>2014-06-23T11:43:37Z</time>
      </trkpt>
      <trkpt lat="59.9876348" lon="17.7316446">
        <ele>27.5349</ele>
        <time>2014-06-23T11:43:38Z</time>
      </trkpt>
      <trkpt lat="59.9876543" lon="17.7316071">
        <ele>27.5349</ele>
        <time>2014-06-23T11:43:39Z</time>
      </trkpt>
      <trkpt lat="59.9876749" lon="17.7315692">
        <ele>27.5349</ele>
        <time>2014-06-23T11:43:40Z</time>
      </trkpt>
      <trkpt lat="59.9876965" lon="17.7315349">
        <ele>27.5349</ele>
        <time>2014-06-23T11:43:41Z</time>
      </trkpt>
      <trkpt lat="59.9877163" lon="17.7314962">
        <ele>27.5349</ele>
        <time>2014-06-23T11:43:42Z</time>
      </trkpt>
      <trkpt lat="59.9877381" lon="17.7314552">
        <ele>27.0543</ele>
        <time>2014-06-23T11:43:43Z</time>
      </trkpt>
      <trkpt lat="59.9877603" lon="17.7314112">
        <ele>27.0543</ele>
        <time>2014-06-23T11:43:44Z</time>
      </trkpt>
      <trkpt lat="59.9877831" lon="17.7313671">
        <ele>27.5349</ele>
        <time>2014-06-23T11:43:45Z</time>
      </trkpt>
      <trkpt lat="59.9878055" lon="17.7313324">
        <ele>27.5349</ele>
        <time>2014-06-23T11:43:46Z</time>
      </trkpt>
      <trkpt lat="59.9878251" lon="17.7312895">
        <ele>28.0155</ele>
        <time>2014-06-23T11:43:47Z</time>
      </trkpt>
      <trkpt lat="59.9878444" lon="17.7312462">
        <ele>27.5349</ele>
        <time>2014-06-23T11:43:48Z</time>
      </trkpt>
      <trkpt lat="59.9878662" lon="17.7312048">
        <ele>27.5349</ele>
        <time>2014-06-23T11:43:49Z</time>
      </trkpt>
      <trkpt lat="59.9878871" lon="17.731164">
        <ele>27.5349</ele>
        <time>2014-06-23T11:43:50Z</time>
      </trkpt>
      <trkpt lat="59.9879062" lon="17.7311153">
        <ele>27.5349</ele>
        <time>2014-06-23T11:43:51Z</time>
      </trkpt>
      <trkpt lat="59.9879245" lon="17.7310661">
        <ele>27.5349</ele>
        <time>2014-06-23T11:43:52Z</time>
      </trkpt>
      <trkpt lat="59.9879444" lon="17.7310209">
        <ele>27.5349</ele>
        <time>2014-06-23T11:43:53Z</time>
      </trkpt>
      <trkpt lat="59.9879632" lon="17.7309786">
        <ele>27.0543</ele>
        <time>2014-06-23T11:43:54Z</time>
      </trkpt>
      <trkpt lat="59.9879826" lon="17.7309289">
        <ele>27.5349</ele>
        <time>2014-06-23T11:43:55Z</time>
      </trkpt>
      <trkpt lat="59.9880049" lon="17.7308863">
        <ele>28.0155</ele>
        <time>2014-06-23T11:43:56Z</time>
      </trkpt>
      <trkpt lat="59.988024" lon="17.7308391">
        <ele>28.0155</ele>
        <time>2014-06-23T11:43:57Z</time>
      </trkpt>
      <trkpt lat="59.9880452" lon="17.7307978">
        <ele>28.0155</ele>
        <time>2014-06-23T11:43:58Z</time>
      </trkpt>
      <trkpt lat="59.988066" lon="17.7307458">
        <ele>27.5349</ele>
        <time>2014-06-23T11:43:59Z</time>
      </trkpt>
      <trkpt lat="59.9880865" lon="17.7307036">
        <ele>27.5349</ele>
        <time>2014-06-23T11:44:00Z</time>
      </trkpt>
      <trkpt lat="59.9881054" lon="17.7306626">
        <ele>27.0543</ele>
        <time>2014-06-23T11:44:01Z</time>
      </trkpt>
      <trkpt lat="59.9881249" lon="17.7306227">
        <ele>27.0543</ele>
        <time>2014-06-23T11:44:02Z</time>
      </trkpt>
      <trkpt lat="59.9881478" lon="17.7305834">
        <ele>26.5736</ele>
        <time>2014-06-23T11:44:03Z</time>
      </trkpt>
      <trkpt lat="59.9881701" lon="17.7305374">
        <ele>26.5736</ele>
        <time>2014-06-23T11:44:04Z</time>
      </trkpt>
      <trkpt lat="59.9881899" lon="17.7305039">
        <ele>26.5736</ele>
        <time>2014-06-23T11:44:05Z</time>
      </trkpt>
      <trkpt lat="59.988209" lon="17.7304553">
        <ele>26.5736</ele>
        <time>2014-06-23T11:44:06Z</time>
      </trkpt>
      <trkpt lat="59.9882288" lon="17.7304099">
        <ele>26.5736</ele>
        <time>2014-06-23T11:44:07Z</time>
      </trkpt>
      <trkpt lat="59.9882489" lon="17.73037">
        <ele>26.5736</ele>
        <time>2014-06-23T11:44:08Z</time>
      </trkpt>
      <trkpt lat="59.9882716" lon="17.7303273">
        <ele>27.0543</ele>
        <time>2014-06-23T11:44:09Z</time>
      </trkpt>
      <trkpt lat="59.9882981" lon="17.7302897">
        <ele>26.5736</ele>
        <time>2014-06-23T11:44:10Z</time>
      </trkpt>
      <trkpt lat="59.9883223" lon="17.7302576">
        <ele>26.0929</ele>
        <time>2014-06-23T11:44:11Z</time>
      </trkpt>
      <trkpt lat="59.9883466" lon="17.7302242">
        <ele>26.0929</ele>
        <time>2014-06-23T11:44:12Z</time>
      </trkpt>
      <trkpt lat="59.9883721" lon="17.7301902">
        <ele>25.6123</ele>
        <time>2014-06-23T11:44:13Z</time>
      </trkpt>
      <trkpt lat="59.9883969" lon="17.7301473">
        <ele>25.6123</ele>
        <time>2014-06-23T11:44:14Z</time>
      </trkpt>
      <trkpt lat="59.9884184" lon="17.7301027">
        <ele>26.0929</ele>
        <time>2014-06-23T11:44:15Z</time>
      </trkpt>
      <trkpt lat="59.988441" lon="17.7300575">
        <ele>26.0929</ele>
        <time>2014-06-23T11:44:16Z</time>
      </trkpt>
      <trkpt lat="59.9884617" lon="17.7300193">
        <ele>26.5736</ele>
        <time>2014-06-23T11:44:17Z</time>
      </trkpt>
      <trkpt lat="59.9884862" lon="17.7300103">
        <ele>26.5736</ele>
        <time>2014-06-23T11:44:18Z</time>
      </trkpt>
      <trkpt lat="59.9885104" lon="17.7299875">
        <ele>26.5736</ele>
        <time>2014-06-23T11:44:19Z</time>
      </trkpt>
      <trkpt lat="59.9885358" lon="17.7299524">
        <ele>27.0543</ele>
        <time>2014-06-23T11:44:20Z</time>
      </trkpt>
      <trkpt lat="59.9885612" lon="17.7299275">
        <ele>27.0543</ele>
        <time>2014-06-23T11:44:21Z</time>
      </trkpt>
      <trkpt lat="59.9885882" lon="17.7299047">
        <ele>27.0543</ele>
        <time>2014-06-23T11:44:22Z</time>
      </trkpt>
      <trkpt lat="59.9886173" lon="17.7298762">
        <ele>27.5349</ele>
        <time>2014-06-23T11:44:23Z</time>
      </trkpt>
      <trkpt lat="59.9886431" lon="17.7298453">
        <ele>28.0155</ele>
        <time>2014-06-23T11:44:24Z</time>
      </trkpt>
      <trkpt lat="59.9886631" lon="17.7298034">
        <ele>28.4962</ele>
        <time>2014-06-23T11:44:25Z</time>
      </trkpt>
      <trkpt lat="59.9886815" lon="17.7297505">
        <ele>29.4575</ele>
        <time>2014-06-23T11:44:26Z</time>
      </trkpt>
      <trkpt lat="59.9887058" lon="17.7297317">
        <ele>28.9769</ele>
        <time>2014-06-23T11:44:27Z</time>
      </trkpt>
      <trkpt lat="59.9887288" lon="17.7297041">
        <ele>29.9381</ele>
        <time>2014-06-23T11:44:28Z</time>
      </trkpt>
      <trkpt lat="59.9887525" lon="17.7296792">
        <ele>29.9381</ele>
        <time>2014-06-23T11:44:29Z</time>
      </trkpt>
      <trkpt lat="59.9887779" lon="17.7296607">
        <ele>30.8995</ele>
        <time>2014-06-23T11:44:30Z</time>
      </trkpt>
      <trkpt lat="59.9888046" lon="17.72964">
        <ele>31.3801</ele>
        <time>2014-06-23T11:44:31Z</time>
      </trkpt>
      <trkpt lat="59.98883" lon="17.7296198">
        <ele>31.8607</ele>
        <time>2014-06-23T11:44:32Z</time>
      </trkpt>
      <trkpt lat="59.9888502" lon="17.7295996">
        <ele>31.3801</ele>
        <time>2014-06-23T11:44:33Z</time>
      </trkpt>
      <trkpt lat="59.9888731" lon="17.7295696">
        <ele>31.3801</ele>
        <time>2014-06-23T11:44:34Z</time>
      </trkpt>
      <trkpt lat="59.9888931" lon="17.7295312">
        <ele>31.3801</ele>
        <time>2014-06-23T11:44:35Z</time>
      </trkpt>
      <trkpt lat="59.9889154" lon="17.7295016">
        <ele>30.8995</ele>
        <time>2014-06-23T11:44:36Z</time>
      </trkpt>
      <trkpt lat="59.9889392" lon="17.7294743">
        <ele>30.8995</ele>
        <time>2014-06-23T11:44:37Z</time>
      </trkpt>
      <trkpt lat="59.9889619" lon="17.7294469">
        <ele>30.4188</ele>
        <time>2014-06-23T11:44:38Z</time>
      </trkpt>
      <trkpt lat="59.9889847" lon="17.729421">
        <ele>30.8995</ele>
        <time>2014-06-23T11:44:39Z</time>
      </trkpt>
      <trkpt lat="59.9890093" lon="17.7293974">
        <ele>30.4188</ele>
        <time>2014-06-23T11:44:40Z</time>
      </trkpt>
      <trkpt lat="59.9890319" lon="17.7293681">
        <ele>29.9381</ele>
        <time>2014-06-23T11:44:41Z</time>
      </trkpt>
      <trkpt lat="59.9890545" lon="17.7293416">
        <ele>29.4575</ele>
        <time>2014-06-23T11:44:42Z</time>
      </trkpt>
      <trkpt lat="59.989078" lon="17.7293179">
        <ele>29.9381</ele>
        <time>2014-06-23T11:44:43Z</time>
      </trkpt>
      <trkpt lat="59.9891032" lon="17.7292884">
        <ele>29.9381</ele>
        <time>2014-06-23T11:44:44Z</time>
      </trkpt>
      <trkpt lat="59.9891258" lon="17.7292645">
        <ele>29.4575</ele>
        <time>2014-06-23T11:44:45Z</time>
      </trkpt>
      <trkpt lat="59.9891486" lon="17.7292422">
        <ele>28.9769</ele>
        <time>2014-06-23T11:44:46Z</time>
      </trkpt>
      <trkpt lat="59.9891744" lon="17.72921">
        <ele>28.9769</ele>
        <time>2014-06-23T11:44:47Z</time>
      </trkpt>
      <trkpt lat="59.9891989" lon="17.7291765">
        <ele>28.4962</ele>
        <time>2014-06-23T11:44:48Z</time>
      </trkpt>
      <trkpt lat="59.989223" lon="17.7291459">
        <ele>28.4962</ele>
        <time>2014-06-23T11:44:49Z</time>
      </trkpt>
      <trkpt lat="59.9892486" lon="17.7291185">
        <ele>28.9769</ele>
        <time>2014-06-23T11:44:50Z</time>
      </trkpt>
      <trkpt lat="59.9892714" lon="17.72909">
        <ele>28.4962</ele>
        <time>2014-06-23T11:44:51Z</time>
      </trkpt>
      <trkpt lat="59.9892937" lon="17.7290533">
        <ele>28.4962</ele>
        <time>2014-06-23T11:44:52Z</time>
      </trkpt>
      <trkpt lat="59.989316" lon="17.729024">
        <ele>28.0155</ele>
        <time>2014-06-23T11:44:53Z</time>
      </trkpt>
      <trkpt lat="59.9893363" lon="17.7289983">
        <ele>28.0155</ele>
        <time>2014-06-23T11:44:54Z</time>
      </trkpt>
      <trkpt lat="59.9893574" lon="17.7289675">
        <ele>28.0155</ele>
        <time>2014-06-23T11:44:55Z</time>
      </trkpt>
      <trkpt lat="59.9893764" lon="17.7289314">
        <ele>28.0155</ele>
        <time>2014-06-23T11:44:56Z</time>
      </trkpt>
      <trkpt lat="59.9893976" lon="17.728901">
        <ele>28.0155</ele>
        <time>2014-06-23T11:44:57Z</time>
      </trkpt>
      <trkpt lat="59.9894165" lon="17.7288558">
        <ele>28.4962</ele>
        <time>2014-06-23T11:44:58Z</time>
      </trkpt>
      <trkpt lat="59.9894352" lon="17.7288093">
        <ele>28.0155</ele>
        <time>2014-06-23T11:44:59Z</time>
      </trkpt>
      <trkpt lat="59.9894485" lon="17.7287595">
        <ele>28.0155</ele>
        <time>2014-06-23T11:45:00Z</time>
      </trkpt>
      <trkpt lat="59.9894636" lon="17.7287036">
        <ele>28.0155</ele>
        <time>2014-06-23T11:45:01Z</time>
      </trkpt>
      <trkpt lat="59.9894784" lon="17.7286546">
        <ele>28.0155</ele>
        <time>2014-06-23T11:45:02Z</time>
      </trkpt>
      <trkpt lat="59.9894931" lon="17.7286108">
        <ele>27.5349</ele>
        <time>2014-06-23T11:45:03Z</time>
      </trkpt>
      <trkpt lat="59.9895064" lon="17.7285663">
        <ele>27.0543</ele>
        <time>2014-06-23T11:45:04Z</time>
      </trkpt>
      <trkpt lat="59.9895162" lon="17.7285226">
        <ele>26.5736</ele>
        <time>2014-06-23T11:45:05Z</time>
      </trkpt>
      <trkpt lat="59.9895242" lon="17.7284838">
        <ele>26.5736</ele>
        <time>2014-06-23T11:45:06Z</time>
      </trkpt>
      <trkpt lat="59.9895304" lon="17.7284345">
        <ele>26.0929</ele>
        <time>2014-06-23T11:45:07Z</time>
      </trkpt>
      <trkpt lat="59.9895349" lon="17.7283865">
        <ele>25.6123</ele>
        <time>2014-06-23T11:45:08Z</time>
      </trkpt>
      <trkpt lat="59.9895369" lon="17.7283367">
        <ele>24.651</ele>
        <time>2014-06-23T11:45:09Z</time>
      </trkpt>
      <trkpt lat="59.9895404" lon="17.7282886">
        <ele>23.6896</ele>
        <time>2014-06-23T11:45:10Z</time>
      </trkpt>
      <trkpt lat="59.9895407" lon="17.7282419">
        <ele>22.7283</ele>
        <time>2014-06-23T11:45:11Z</time>
      </trkpt>
      <trkpt lat="59.9895401" lon="17.7281993">
        <ele>21.767</ele>
        <time>2014-06-23T11:45:12Z</time>
      </trkpt>
      <trkpt lat="59.9895418" lon="17.7281516">
        <ele>21.2864</ele>
        <time>2014-06-23T11:45:13Z</time>
      </trkpt>
      <trkpt lat="59.9895428" lon="17.7280995">
        <ele>20.8057</ele>
        <time>2014-06-23T11:45:14Z</time>
      </trkpt>
      <trkpt lat="59.9895423" lon="17.7280408">
        <ele>20.325</ele>
        <time>2014-06-23T11:45:15Z</time>
      </trkpt>
      <trkpt lat="59.9895413" lon="17.7279815">
        <ele>20.325</ele>
        <time>2014-06-23T11:45:16Z</time>
      </trkpt>
      <trkpt lat="59.9895437" lon="17.7279271">
        <ele>21.2864</ele>
        <time>2014-06-23T11:45:17Z</time>
      </trkpt>
      <trkpt lat="59.9895432" lon="17.7278742">
        <ele>21.2864</ele>
        <time>2014-06-23T11:45:18Z</time>
      </trkpt>
      <trkpt lat="59.9895411" lon="17.7278101">
        <ele>20.8057</ele>
        <time>2014-06-23T11:45:19Z</time>
      </trkpt>
      <trkpt lat="59.9895424" lon="17.7277421">
        <ele>20.325</ele>
        <time>2014-06-23T11:45:20Z</time>
      </trkpt>
      <trkpt lat="59.9895445" lon="17.7276857">
        <ele>20.325</ele>
        <time>2014-06-23T11:45:21Z</time>
      </trkpt>
      <trkpt lat="59.9895463" lon="17.7276308">
        <ele>20.325</ele>
        <time>2014-06-23T11:45:22Z</time>
      </trkpt>
      <trkpt lat="59.9895504" lon="17.7275697">
        <ele>20.325</ele>
        <time>2014-06-23T11:45:23Z</time>
      </trkpt>
      <trkpt lat="59.9895542" lon="17.7275062">
        <ele>20.8057</ele>
        <time>2014-06-23T11:45:24Z</time>
      </trkpt>
      <trkpt lat="59.9895571" lon="17.7274489">
        <ele>20.325</ele>
        <time>2014-06-23T11:45:25Z</time>
      </trkpt>
      <trkpt lat="59.9895629" lon="17.7273925">
        <ele>20.325</ele>
        <time>2014-06-23T11:45:26Z</time>
      </trkpt>
      <trkpt lat="59.9895671" lon="17.7273386">
        <ele>20.325</ele>
        <time>2014-06-23T11:45:27Z</time>
      </trkpt>
      <trkpt lat="59.9895724" lon="17.7272838">
        <ele>20.325</ele>
        <time>2014-06-23T11:45:28Z</time>
      </trkpt>
      <trkpt lat="59.989578" lon="17.7272262">
        <ele>20.325</ele>
        <time>2014-06-23T11:45:29Z</time>
      </trkpt>
      <trkpt lat="59.9895844" lon="17.7271718">
        <ele>20.325</ele>
        <time>2014-06-23T11:45:30Z</time>
      </trkpt>
      <trkpt lat="59.9895905" lon="17.7271203">
        <ele>19.8444</ele>
        <time>2014-06-23T11:45:31Z</time>
      </trkpt>
      <trkpt lat="59.9896001" lon="17.7270698">
        <ele>20.325</ele>
        <time>2014-06-23T11:45:32Z</time>
      </trkpt>
      <trkpt lat="59.9896116" lon="17.7270184">
        <ele>20.325</ele>
        <time>2014-06-23T11:45:33Z</time>
      </trkpt>
      <trkpt lat="59.9896205" lon="17.7269703">
        <ele>19.8444</ele>
        <time>2014-06-23T11:45:34Z</time>
      </trkpt>
      <trkpt lat="59.9896273" lon="17.7269219">
        <ele>19.3638</ele>
        <time>2014-06-23T11:45:35Z</time>
      </trkpt>
      <trkpt lat="59.989633" lon="17.7268752">
        <ele>19.3638</ele>
        <time>2014-06-23T11:45:36Z</time>
      </trkpt>
      <trkpt lat="59.9896354" lon="17.7268278">
        <ele>19.8444</ele>
        <time>2014-06-23T11:45:37Z</time>
      </trkpt>
      <trkpt lat="59.9896366" lon="17.7267852">
        <ele>19.3638</ele>
        <time>2014-06-23T11:45:38Z</time>
      </trkpt>
      <trkpt lat="59.9896391" lon="17.7267407">
        <ele>18.8831</ele>
        <time>2014-06-23T11:45:39Z</time>
      </trkpt>
      <trkpt lat="59.9896412" lon="17.7266829">
        <ele>19.3638</ele>
        <time>2014-06-23T11:45:40Z</time>
      </trkpt>
      <trkpt lat="59.9896427" lon="17.7266308">
        <ele>19.3638</ele>
        <time>2014-06-23T11:45:41Z</time>
      </trkpt>
      <trkpt lat="59.9896392" lon="17.7265945">
        <ele>19.3638</ele>
        <time>2014-06-23T11:45:42Z</time>
      </trkpt>
      <trkpt lat="59.9896264" lon="17.7265572">
        <ele>19.3638</ele>
        <time>2014-06-23T11:45:43Z</time>
      </trkpt>
      <trkpt lat="59.9896082" lon="17.7265344">
        <ele>19.3638</ele>
        <time>2014-06-23T11:45:44Z</time>
      </trkpt>
      <trkpt lat="59.9895841" lon="17.7265329">
        <ele>19.3638</ele>
        <time>2014-06-23T11:45:45Z</time>
      </trkpt>
      <trkpt lat="59.9895569" lon="17.7265349">
        <ele>19.3638</ele>
        <time>2014-06-23T11:45:46Z</time>
      </trkpt>
      <trkpt lat="59.9895294" lon="17.7265391">
        <ele>19.3638</ele>
        <time>2014-06-23T11:45:47Z</time>
      </trkpt>
      <trkpt lat="59.9895048" lon="17.7265502">
        <ele>19.3638</ele>
        <time>2014-06-23T11:45:48Z</time>
      </trkpt>
      <trkpt lat="59.989475" lon="17.7265624">
        <ele>19.3638</ele>
        <time>2014-06-23T11:45:49Z</time>
      </trkpt>
      <trkpt lat="59.9894438" lon="17.7265719">
        <ele>19.3638</ele>
        <time>2014-06-23T11:45:50Z</time>
      </trkpt>
      <trkpt lat="59.9894175" lon="17.726576">
        <ele>19.3638</ele>
        <time>2014-06-23T11:45:51Z</time>
      </trkpt>
      <trkpt lat="59.9893884" lon="17.726573">
        <ele>18.8831</ele>
        <time>2014-06-23T11:45:52Z</time>
      </trkpt>
      <trkpt lat="59.9893593" lon="17.7265652">
        <ele>18.8831</ele>
        <time>2014-06-23T11:45:53Z</time>
      </trkpt>
      <trkpt lat="59.989332" lon="17.7265589">
        <ele>19.3638</ele>
        <time>2014-06-23T11:45:54Z</time>
      </trkpt>
      <trkpt lat="59.9893025" lon="17.7265582">
        <ele>19.8444</ele>
        <time>2014-06-23T11:45:55Z</time>
      </trkpt>
      <trkpt lat="59.989274" lon="17.7265573">
        <ele>20.325</ele>
        <time>2014-06-23T11:45:56Z</time>
      </trkpt>
      <trkpt lat="59.9892425" lon="17.7265579">
        <ele>20.325</ele>
        <time>2014-06-23T11:45:57Z</time>
      </trkpt>
      <trkpt lat="59.9892142" lon="17.7265568">
        <ele>20.325</ele>
        <time>2014-06-23T11:45:58Z</time>
      </trkpt>
      <trkpt lat="59.989188" lon="17.7265575">
        <ele>21.2864</ele>
        <time>2014-06-23T11:45:59Z</time>
      </trkpt>
      <trkpt lat="59.9891595" lon="17.7265573">
        <ele>21.767</ele>
        <time>2014-06-23T11:46:00Z</time>
      </trkpt>
      <trkpt lat="59.9891315" lon="17.7265552">
        <ele>22.2476</ele>
        <time>2014-06-23T11:46:01Z</time>
      </trkpt>
      <trkpt lat="59.989104" lon="17.7265558">
        <ele>21.767</ele>
        <time>2014-06-23T11:46:02Z</time>
      </trkpt>
      <trkpt lat="59.9890765" lon="17.7265534">
        <ele>22.2476</ele>
        <time>2014-06-23T11:46:03Z</time>
      </trkpt>
      <trkpt lat="59.9890456" lon="17.7265538">
        <ele>22.2476</ele>
        <time>2014-06-23T11:46:04Z</time>
      </trkpt>
      <trkpt lat="59.9890134" lon="17.7265546">
        <ele>22.2476</ele>
        <time>2014-06-23T11:46:05Z</time>
      </trkpt>
      <trkpt lat="59.9889799" lon="17.7265565">
        <ele>21.767</ele>
        <time>2014-06-23T11:46:06Z</time>
      </trkpt>
      <trkpt lat="59.9889487" lon="17.7265585">
        <ele>21.767</ele>
        <time>2014-06-23T11:46:07Z</time>
      </trkpt>
      <trkpt lat="59.9889167" lon="17.726558">
        <ele>21.2864</ele>
        <time>2014-06-23T11:46:08Z</time>
      </trkpt>
      <trkpt lat="59.988886" lon="17.7265575">
        <ele>21.767</ele>
        <time>2014-06-23T11:46:09Z</time>
      </trkpt>
      <trkpt lat="59.9888519" lon="17.7265601">
        <ele>21.767</ele>
        <time>2014-06-23T11:46:10Z</time>
      </trkpt>
      <trkpt lat="59.9888217" lon="17.7265615">
        <ele>21.767</ele>
        <time>2014-06-23T11:46:11Z</time>
      </trkpt>
      <trkpt lat="59.9887917" lon="17.7265608">
        <ele>21.767</ele>
        <time>2014-06-23T11:46:12Z</time>
      </trkpt>
      <trkpt lat="59.98876" lon="17.7265572">
        <ele>22.2476</ele>
        <time>2014-06-23T11:46:13Z</time>
      </trkpt>
      <trkpt lat="59.9887271" lon="17.7265587">
        <ele>22.7283</ele>
        <time>2014-06-23T11:46:14Z</time>
      </trkpt>
      <trkpt lat="59.9886892" lon="17.7265572">
        <ele>23.209</ele>
        <time>2014-06-23T11:46:15Z</time>
      </trkpt>
      <trkpt lat="59.9886523" lon="17.7265552">
        <ele>22.7283</ele>
        <time>2014-06-23T11:46:16Z</time>
      </trkpt>
      <trkpt lat="59.9886204" lon="17.7265548">
        <ele>23.209</ele>
        <time>2014-06-23T11:46:17Z</time>
      </trkpt>
      <trkpt lat="59.988588" lon="17.7265553">
        <ele>23.209</ele>
        <time>2014-06-23T11:46:18Z</time>
      </trkpt>
      <trkpt lat="59.9885571" lon="17.7265582">
        <ele>23.209</ele>
        <time>2014-06-23T11:46:19Z</time>
      </trkpt>
      <trkpt lat="59.9885276" lon="17.7265546">
        <ele>23.209</ele>
        <time>2014-06-23T11:46:20Z</time>
      </trkpt>
      <trkpt lat="59.988498" lon="17.7265491">
        <ele>23.209</ele>
        <time>2014-06-23T11:46:21Z</time>
      </trkpt>
      <trkpt lat="59.9884685" lon="17.72655">
        <ele>23.6896</ele>
        <time>2014-06-23T11:46:22Z</time>
      </trkpt>
      <trkpt lat="59.9884372" lon="17.7265534">
        <ele>23.209</ele>
        <time>2014-06-23T11:46:23Z</time>
      </trkpt>
      <trkpt lat="59.9884063" lon="17.7265574">
        <ele>23.209</ele>
        <time>2014-06-23T11:46:24Z</time>
      </trkpt>
      <trkpt lat="59.9883773" lon="17.7265565">
        <ele>22.7283</ele>
        <time>2014-06-23T11:46:25Z</time>
      </trkpt>
      <trkpt lat="59.9883507" lon="17.7265565">
        <ele>22.7283</ele>
        <time>2014-06-23T11:46:26Z</time>
      </trkpt>
      <trkpt lat="59.9883219" lon="17.7265588">
        <ele>22.2476</ele>
        <time>2014-06-23T11:46:27Z</time>
      </trkpt>
      <trkpt lat="59.9882919" lon="17.7265579">
        <ele>22.2476</ele>
        <time>2014-06-23T11:46:28Z</time>
      </trkpt>
      <trkpt lat="59.9882635" lon="17.7265589">
        <ele>21.767</ele>
        <time>2014-06-23T11:46:29Z</time>
      </trkpt>
      <trkpt lat="59.9882318" lon="17.7265609">
        <ele>21.2864</ele>
        <time>2014-06-23T11:46:30Z</time>
      </trkpt>
      <trkpt lat="59.9882027" lon="17.7265578">
        <ele>20.8057</ele>
        <time>2014-06-23T11:46:31Z</time>
      </trkpt>
      <trkpt lat="59.9881769" lon="17.7265584">
        <ele>20.8057</ele>
        <time>2014-06-23T11:46:32Z</time>
      </trkpt>
      <trkpt lat="59.9881468" lon="17.7265632">
        <ele>20.8057</ele>
        <time>2014-06-23T11:46:33Z</time>
      </trkpt>
      <trkpt lat="59.9881171" lon="17.7265671">
        <ele>20.325</ele>
        <time>2014-06-23T11:46:34Z</time>
      </trkpt>
      <trkpt lat="59.9880894" lon="17.7265682">
        <ele>20.325</ele>
        <time>2014-06-23T11:46:35Z</time>
      </trkpt>
      <trkpt lat="59.9880617" lon="17.7265687">
        <ele>19.8444</ele>
        <time>2014-06-23T11:46:36Z</time>
      </trkpt>
      <trkpt lat="59.9880386" lon="17.7265667">
        <ele>19.3638</ele>
        <time>2014-06-23T11:46:37Z</time>
      </trkpt>
      <trkpt lat="59.9880136" lon="17.7265662">
        <ele>19.3638</ele>
        <time>2014-06-23T11:46:38Z</time>
      </trkpt>
      <trkpt lat="59.9879866" lon="17.7265673">
        <ele>18.8831</ele>
        <time>2014-06-23T11:46:39Z</time>
      </trkpt>
      <trkpt lat="59.9879619" lon="17.7265687">
        <ele>18.8831</ele>
        <time>2014-06-23T11:46:40Z</time>
      </trkpt>
      <trkpt lat="59.9879361" lon="17.7265636">
        <ele>18.8831</ele>
        <time>2014-06-23T11:46:41Z</time>
      </trkpt>
      <trkpt lat="59.9879075" lon="17.7265615">
        <ele>17.9218</ele>
        <time>2014-06-23T11:46:42Z</time>
      </trkpt>
      <trkpt lat="59.9878806" lon="17.7265625">
        <ele>17.9218</ele>
        <time>2014-06-23T11:46:43Z</time>
      </trkpt>
      <trkpt lat="59.9878531" lon="17.7265636">
        <ele>17.4412</ele>
        <time>2014-06-23T11:46:44Z</time>
      </trkpt>
      <trkpt lat="59.9878246" lon="17.726564">
        <ele>17.4412</ele>
        <time>2014-06-23T11:46:45Z</time>
      </trkpt>
      <trkpt lat="59.9877945" lon="17.7265631">
        <ele>16.9604</ele>
        <time>2014-06-23T11:46:46Z</time>
      </trkpt>
      <trkpt lat="59.987765" lon="17.726563">
        <ele>16.9604</ele>
        <time>2014-06-23T11:46:47Z</time>
      </trkpt>
      <trkpt lat="59.9877377" lon="17.7265631">
        <ele>17.4412</ele>
        <time>2014-06-23T11:46:48Z</time>
      </trkpt>
      <trkpt lat="59.9877084" lon="17.7265639">
        <ele>17.4412</ele>
        <time>2014-06-23T11:46:49Z</time>
      </trkpt>
      <trkpt lat="59.9876806" lon="17.7265655">
        <ele>17.4412</ele>
        <time>2014-06-23T11:46:50Z</time>
      </trkpt>
      <trkpt lat="59.9876551" lon="17.7265639">
        <ele>17.9218</ele>
        <time>2014-06-23T11:46:51Z</time>
      </trkpt>
      <trkpt lat="59.9876289" lon="17.7265625">
        <ele>17.4412</ele>
        <time>2014-06-23T11:46:52Z</time>
      </trkpt>
      <trkpt lat="59.9876027" lon="17.7265631">
        <ele>17.4412</ele>
        <time>2014-06-23T11:46:53Z</time>
      </trkpt>
      <trkpt lat="59.9875743" lon="17.7265595">
        <ele>17.4412</ele>
        <time>2014-06-23T11:46:54Z</time>
      </trkpt>
      <trkpt lat="59.9875483" lon="17.7265583">
        <ele>17.4412</ele>
        <time>2014-06-23T11:46:55Z</time>
      </trkpt>
      <trkpt lat="59.9875216" lon="17.7265598">
        <ele>17.4412</ele>
        <time>2014-06-23T11:46:56Z</time>
      </trkpt>
      <trkpt lat="59.987494" lon="17.7265583">
        <ele>16.9604</ele>
        <time>2014-06-23T11:46:57Z</time>
      </trkpt>
      <trkpt lat="59.9874693" lon="17.7265568">
        <ele>17.4412</ele>
        <time>2014-06-23T11:46:58Z</time>
      </trkpt>
      <trkpt lat="59.9874426" lon="17.7265569">
        <ele>17.9218</ele>
        <time>2014-06-23T11:46:59Z</time>
      </trkpt>
      <trkpt lat="59.987417" lon="17.7265604">
        <ele>18.4023</ele>
        <time>2014-06-23T11:47:00Z</time>
      </trkpt>
      <trkpt lat="59.9873931" lon="17.7265657">
        <ele>18.4023</ele>
        <time>2014-06-23T11:47:01Z</time>
      </trkpt>
      <trkpt lat="59.9873646" lon="17.7265673">
        <ele>18.4023</ele>
        <time>2014-06-23T11:47:02Z</time>
      </trkpt>
      <trkpt lat="59.9873366" lon="17.7265691">
        <ele>18.4023</ele>
        <time>2014-06-23T11:47:03Z</time>
      </trkpt>
      <trkpt lat="59.9873096" lon="17.7265678">
        <ele>18.8831</ele>
        <time>2014-06-23T11:47:04Z</time>
      </trkpt>
      <trkpt lat="59.9872813" lon="17.7265655">
        <ele>18.8831</ele>
        <time>2014-06-23T11:47:05Z</time>
      </trkpt>
      <trkpt lat="59.9872541" lon="17.7265681">
        <ele>18.8831</ele>
        <time>2014-06-23T11:47:06Z</time>
      </trkpt>
      <trkpt lat="59.9872227" lon="17.7265713">
        <ele>18.8831</ele>
        <time>2014-06-23T11:47:07Z</time>
      </trkpt>
      <trkpt lat="59.9871916" lon="17.7265754">
        <ele>19.3638</ele>
        <time>2014-06-23T11:47:08Z</time>
      </trkpt>
      <trkpt lat="59.987161" lon="17.7265838">
        <ele>19.3638</ele>
        <time>2014-06-23T11:47:09Z</time>
      </trkpt>
      <trkpt lat="59.987132" lon="17.7265921">
        <ele>18.8831</ele>
        <time>2014-06-23T11:47:10Z</time>
      </trkpt>
      <trkpt lat="59.9871011" lon="17.7265958">
        <ele>18.8831</ele>
        <time>2014-06-23T11:47:11Z</time>
      </trkpt>
      <trkpt lat="59.987071" lon="17.7265942">
        <ele>18.8831</ele>
        <time>2014-06-23T11:47:12Z</time>
      </trkpt>
      <trkpt lat="59.987044" lon="17.7265952">
        <ele>18.8831</ele>
        <time>2014-06-23T11:47:13Z</time>
      </trkpt>
      <trkpt lat="59.987016" lon="17.7265956">
        <ele>18.8831</ele>
        <time>2014-06-23T11:47:14Z</time>
      </trkpt>
      <trkpt lat="59.9869869" lon="17.7265994">
        <ele>18.4023</ele>
        <time>2014-06-23T11:47:15Z</time>
      </trkpt>
      <trkpt lat="59.9869579" lon="17.7266025">
        <ele>18.4023</ele>
        <time>2014-06-23T11:47:16Z</time>
      </trkpt>
      <trkpt lat="59.9869285" lon="17.7266025">
        <ele>18.4023</ele>
        <time>2014-06-23T11:47:17Z</time>
      </trkpt>
      <trkpt lat="59.9869026" lon="17.7266015">
        <ele>18.8831</ele>
        <time>2014-06-23T11:47:18Z</time>
      </trkpt>
      <trkpt lat="59.9868756" lon="17.7265999">
        <ele>18.8831</ele>
        <time>2014-06-23T11:47:19Z</time>
      </trkpt>
      <trkpt lat="59.9868488" lon="17.7265969">
        <ele>19.3638</ele>
        <time>2014-06-23T11:47:20Z</time>
      </trkpt>
      <trkpt lat="59.9868212" lon="17.7265987">
        <ele>19.8444</ele>
        <time>2014-06-23T11:47:21Z</time>
      </trkpt>
      <trkpt lat="59.9867907" lon="17.7266034">
        <ele>20.8057</ele>
        <time>2014-06-23T11:47:22Z</time>
      </trkpt>
      <trkpt lat="59.9867569" lon="17.7266127">
        <ele>21.2864</ele>
        <time>2014-06-23T11:47:23Z</time>
      </trkpt>
      <trkpt lat="59.9867267" lon="17.7266137">
        <ele>21.2864</ele>
        <time>2014-06-23T11:47:24Z</time>
      </trkpt>
      <trkpt lat="59.986701" lon="17.7266076">
        <ele>21.2864</ele>
        <time>2014-06-23T11:47:25Z</time>
      </trkpt>
      <trkpt lat="59.986673" lon="17.7266005">
        <ele>21.767</ele>
        <time>2014-06-23T11:47:26Z</time>
      </trkpt>
      <trkpt lat="59.9866444" lon="17.7265968">
        <ele>22.2476</ele>
        <time>2014-06-23T11:47:27Z</time>
      </trkpt>
      <trkpt lat="59.986617" lon="17.7265966">
        <ele>23.209</ele>
        <time>2014-06-23T11:47:28Z</time>
      </trkpt>
      <trkpt lat="59.9865901" lon="17.7265987">
        <ele>23.209</ele>
        <time>2014-06-23T11:47:29Z</time>
      </trkpt>
      <trkpt lat="59.9865648" lon="17.7265994">
        <ele>23.6896</ele>
        <time>2014-06-23T11:47:30Z</time>
      </trkpt>
      <trkpt lat="59.9865378" lon="17.7265994">
        <ele>23.6896</ele>
        <time>2014-06-23T11:47:31Z</time>
      </trkpt>
      <trkpt lat="59.9865135" lon="17.7265957">
        <ele>24.651</ele>
        <time>2014-06-23T11:47:32Z</time>
      </trkpt>
      <trkpt lat="59.986487" lon="17.7265969">
        <ele>24.651</ele>
        <time>2014-06-23T11:47:33Z</time>
      </trkpt>
      <trkpt lat="59.9864595" lon="17.7265978">
        <ele>25.1317</ele>
        <time>2014-06-23T11:47:34Z</time>
      </trkpt>
      <trkpt lat="59.9864302" lon="17.7266015">
        <ele>25.1317</ele>
        <time>2014-06-23T11:47:35Z</time>
      </trkpt>
      <trkpt lat="59.9864005" lon="17.7266029">
        <ele>25.6123</ele>
        <time>2014-06-23T11:47:36Z</time>
      </trkpt>
      <trkpt lat="59.9863706" lon="17.7266028">
        <ele>25.6123</ele>
        <time>2014-06-23T11:47:37Z</time>
      </trkpt>
      <trkpt lat="59.98634" lon="17.7266071">
        <ele>25.6123</ele>
        <time>2014-06-23T11:47:38Z</time>
      </trkpt>
      <trkpt lat="59.9863128" lon="17.7266078">
        <ele>25.6123</ele>
        <time>2014-06-23T11:47:39Z</time>
      </trkpt>
      <trkpt lat="59.9862882" lon="17.7266071">
        <ele>25.6123</ele>
        <time>2014-06-23T11:47:40Z</time>
      </trkpt>
      <trkpt lat="59.9862621" lon="17.7266064">
        <ele>25.6123</ele>
        <time>2014-06-23T11:47:41Z</time>
      </trkpt>
      <trkpt lat="59.9862355" lon="17.7266065">
        <ele>26.0929</ele>
        <time>2014-06-23T11:47:42Z</time>
      </trkpt>
      <trkpt lat="59.9862108" lon="17.7266051">
        <ele>26.5736</ele>
        <time>2014-06-23T11:47:43Z</time>
      </trkpt>
      <trkpt lat="59.9861849" lon="17.7266041">
        <ele>26.0929</ele>
        <time>2014-06-23T11:47:44Z</time>
      </trkpt>
      <trkpt lat="59.9861574" lon="17.7266056">
        <ele>26.0929</ele>
        <time>2014-06-23T11:47:45Z</time>
      </trkpt>
      <trkpt lat="59.9861282" lon="17.7266064">
        <ele>25.6123</ele>
        <time>2014-06-23T11:47:46Z</time>
      </trkpt>
      <trkpt lat="59.9861015" lon="17.7266065">
        <ele>25.6123</ele>
        <time>2014-06-23T11:47:47Z</time>
      </trkpt>
      <trkpt lat="59.9860737" lon="17.7266086">
        <ele>25.1317</ele>
        <time>2014-06-23T11:47:48Z</time>
      </trkpt>
      <trkpt lat="59.9860467" lon="17.726608">
        <ele>25.1317</ele>
        <time>2014-06-23T11:47:49Z</time>
      </trkpt>
      <trkpt lat="59.9860213" lon="17.7266081">
        <ele>24.651</ele>
        <time>2014-06-23T11:47:50Z</time>
      </trkpt>
      <trkpt lat="59.9859944" lon="17.7266081">
        <ele>24.1703</ele>
        <time>2014-06-23T11:47:51Z</time>
      </trkpt>
      <trkpt lat="59.985967" lon="17.726609">
        <ele>24.1703</ele>
        <time>2014-06-23T11:47:52Z</time>
      </trkpt>
      <trkpt lat="59.9859391" lon="17.7266138">
        <ele>24.651</ele>
        <time>2014-06-23T11:47:53Z</time>
      </trkpt>
      <trkpt lat="59.9859135" lon="17.7266145">
        <ele>24.651</ele>
        <time>2014-06-23T11:47:54Z</time>
      </trkpt>
      <trkpt lat="59.9858878" lon="17.7266152">
        <ele>24.1703</ele>
        <time>2014-06-23T11:47:55Z</time>
      </trkpt>
      <trkpt lat="59.9858614" lon="17.7266139">
        <ele>24.1703</ele>
        <time>2014-06-23T11:47:56Z</time>
      </trkpt>
      <trkpt lat="59.9858344" lon="17.7266162">
        <ele>24.1703</ele>
        <time>2014-06-23T11:47:57Z</time>
      </trkpt>
      <trkpt lat="59.9858079" lon="17.7266183">
        <ele>23.6896</ele>
        <time>2014-06-23T11:47:58Z</time>
      </trkpt>
      <trkpt lat="59.9857805" lon="17.726617">
        <ele>23.6896</ele>
        <time>2014-06-23T11:47:59Z</time>
      </trkpt>
      <trkpt lat="59.9857536" lon="17.7266143">
        <ele>23.6896</ele>
        <time>2014-06-23T11:48:00Z</time>
      </trkpt>
      <trkpt lat="59.9857255" lon="17.7266133">
        <ele>23.6896</ele>
        <time>2014-06-23T11:48:01Z</time>
      </trkpt>
      <trkpt lat="59.9856982" lon="17.7266136">
        <ele>23.209</ele>
        <time>2014-06-23T11:48:02Z</time>
      </trkpt>
      <trkpt lat="59.9856728" lon="17.7266159">
        <ele>23.209</ele>
        <time>2014-06-23T11:48:03Z</time>
      </trkpt>
      <trkpt lat="59.9856484" lon="17.726614">
        <ele>24.1703</ele>
        <time>2014-06-23T11:48:04Z</time>
      </trkpt>
      <trkpt lat="59.985621" lon="17.726619">
        <ele>23.6896</ele>
        <time>2014-06-23T11:48:05Z</time>
      </trkpt>
      <trkpt lat="59.9855945" lon="17.7266206">
        <ele>23.6896</ele>
        <time>2014-06-23T11:48:06Z</time>
      </trkpt>
      <trkpt lat="59.9855718" lon="17.7266178">
        <ele>23.6896</ele>
        <time>2014-06-23T11:48:07Z</time>
      </trkpt>
      <trkpt lat="59.9855485" lon="17.726618">
        <ele>24.651</ele>
        <time>2014-06-23T11:48:08Z</time>
      </trkpt>
      <trkpt lat="59.9855218" lon="17.7266181">
        <ele>24.651</ele>
        <time>2014-06-23T11:48:09Z</time>
      </trkpt>
      <trkpt lat="59.9854962" lon="17.726618">
        <ele>24.651</ele>
        <time>2014-06-23T11:48:10Z</time>
      </trkpt>
      <trkpt lat="59.9854696" lon="17.7266217">
        <ele>24.651</ele>
        <time>2014-06-23T11:48:11Z</time>
      </trkpt>
      <trkpt lat="59.9854414" lon="17.7266233">
        <ele>24.651</ele>
        <time>2014-06-23T11:48:12Z</time>
      </trkpt>
      <trkpt lat="59.9854152" lon="17.7266241">
        <ele>24.651</ele>
        <time>2014-06-23T11:48:13Z</time>
      </trkpt>
      <trkpt lat="59.9853889" lon="17.7266233">
        <ele>24.651</ele>
        <time>2014-06-23T11:48:14Z</time>
      </trkpt>
      <trkpt lat="59.9853628" lon="17.7266228">
        <ele>25.1317</ele>
        <time>2014-06-23T11:48:15Z</time>
      </trkpt>
      <trkpt lat="59.9853379" lon="17.7266221">
        <ele>25.1317</ele>
        <time>2014-06-23T11:48:16Z</time>
      </trkpt>
      <trkpt lat="59.9853137" lon="17.7266191">
        <ele>25.1317</ele>
        <time>2014-06-23T11:48:17Z</time>
      </trkpt>
      <trkpt lat="59.98529" lon="17.7266173">
        <ele>25.1317</ele>
        <time>2014-06-23T11:48:18Z</time>
      </trkpt>
      <trkpt lat="59.985264" lon="17.7266188">
        <ele>25.6123</ele>
        <time>2014-06-23T11:48:19Z</time>
      </trkpt>
      <trkpt lat="59.9852366" lon="17.7266206">
        <ele>25.6123</ele>
        <time>2014-06-23T11:48:20Z</time>
      </trkpt>
      <trkpt lat="59.9852092" lon="17.7266223">
        <ele>25.6123</ele>
        <time>2014-06-23T11:48:21Z</time>
      </trkpt>
      <trkpt lat="59.9851841" lon="17.7266228">
        <ele>25.6123</ele>
        <time>2014-06-23T11:48:22Z</time>
      </trkpt>
      <trkpt lat="59.9851584" lon="17.7266262">
        <ele>25.6123</ele>
        <time>2014-06-23T11:48:23Z</time>
      </trkpt>
      <trkpt lat="59.9851313" lon="17.7266279">
        <ele>26.0929</ele>
        <time>2014-06-23T11:48:24Z</time>
      </trkpt>
      <trkpt lat="59.9851045" lon="17.7266308">
        <ele>26.0929</ele>
        <time>2014-06-23T11:48:25Z</time>
      </trkpt>
      <trkpt lat="59.9850798" lon="17.7266341">
        <ele>26.0929</ele>
        <time>2014-06-23T11:48:26Z</time>
      </trkpt>
      <trkpt lat="59.9850554" lon="17.7266346">
        <ele>26.0929</ele>
        <time>2014-06-23T11:48:27Z</time>
      </trkpt>
      <trkpt lat="59.9850324" lon="17.7266341">
        <ele>26.0929</ele>
        <time>2014-06-23T11:48:28Z</time>
      </trkpt>
      <trkpt lat="59.9850066" lon="17.7266355">
        <ele>26.0929</ele>
        <time>2014-06-23T11:48:29Z</time>
      </trkpt>
      <trkpt lat="59.9849785" lon="17.7266361">
        <ele>26.0929</ele>
        <time>2014-06-23T11:48:30Z</time>
      </trkpt>
      <trkpt lat="59.9849517" lon="17.726635">
        <ele>26.0929</ele>
        <time>2014-06-23T11:48:31Z</time>
      </trkpt>
      <trkpt lat="59.9849262" lon="17.7266313">
        <ele>26.0929</ele>
        <time>2014-06-23T11:48:32Z</time>
      </trkpt>
      <trkpt lat="59.9849018" lon="17.7266304">
        <ele>25.6123</ele>
        <time>2014-06-23T11:48:33Z</time>
      </trkpt>
      <trkpt lat="59.9848762" lon="17.7266273">
        <ele>25.6123</ele>
        <time>2014-06-23T11:48:34Z</time>
      </trkpt>
      <trkpt lat="59.9848485" lon="17.7266268">
        <ele>26.0929</ele>
        <time>2014-06-23T11:48:35Z</time>
      </trkpt>
      <trkpt lat="59.9848211" lon="17.7266299">
        <ele>26.0929</ele>
        <time>2014-06-23T11:48:36Z</time>
      </trkpt>
      <trkpt lat="59.9847922" lon="17.7266304">
        <ele>26.5736</ele>
        <time>2014-06-23T11:48:37Z</time>
      </trkpt>
      <trkpt lat="59.9847657" lon="17.7266292">
        <ele>26.5736</ele>
        <time>2014-06-23T11:48:38Z</time>
      </trkpt>
      <trkpt lat="59.9847386" lon="17.7266294">
        <ele>27.0543</ele>
        <time>2014-06-23T11:48:39Z</time>
      </trkpt>
      <trkpt lat="59.9847104" lon="17.7266298">
        <ele>27.0543</ele>
        <time>2014-06-23T11:48:40Z</time>
      </trkpt>
      <trkpt lat="59.9846845" lon="17.7266277">
        <ele>27.5349</ele>
        <time>2014-06-23T11:48:41Z</time>
      </trkpt>
      <trkpt lat="59.9846564" lon="17.7266262">
        <ele>28.0155</ele>
        <time>2014-06-23T11:48:42Z</time>
      </trkpt>
      <trkpt lat="59.9846091" lon="17.7266189">
        <ele>28.0155</ele>
        <time>2014-06-23T11:48:44Z</time>
      </trkpt>
      <trkpt lat="59.9845803" lon="17.7266194">
        <ele>28.0155</ele>
        <time>2014-06-23T11:48:45Z</time>
      </trkpt>
      <trkpt lat="59.9845518" lon="17.7266232">
        <ele>27.5349</ele>
        <time>2014-06-23T11:48:46Z</time>
      </trkpt>
      <trkpt lat="59.984525" lon="17.7266233">
        <ele>28.0155</ele>
        <time>2014-06-23T11:48:47Z</time>
      </trkpt>
      <trkpt lat="59.9844953" lon="17.7266233">
        <ele>27.5349</ele>
        <time>2014-06-23T11:48:48Z</time>
      </trkpt>
      <trkpt lat="59.9844656" lon="17.7266233">
        <ele>27.5349</ele>
        <time>2014-06-23T11:48:49Z</time>
      </trkpt>
      <trkpt lat="59.9844363" lon="17.7266217">
        <ele>27.5349</ele>
        <time>2014-06-23T11:48:50Z</time>
      </trkpt>
      <trkpt lat="59.9844088" lon="17.7266196">
        <ele>27.0543</ele>
        <time>2014-06-23T11:48:51Z</time>
      </trkpt>
      <trkpt lat="59.9843827" lon="17.7266162">
        <ele>27.5349</ele>
        <time>2014-06-23T11:48:52Z</time>
      </trkpt>
      <trkpt lat="59.9843523" lon="17.7266152">
        <ele>27.0543</ele>
        <time>2014-06-23T11:48:53Z</time>
      </trkpt>
      <trkpt lat="59.9843232" lon="17.7266149">
        <ele>27.0543</ele>
        <time>2014-06-23T11:48:54Z</time>
      </trkpt>
      <trkpt lat="59.984294" lon="17.7266186">
        <ele>27.0543</ele>
        <time>2014-06-23T11:48:55Z</time>
      </trkpt>
      <trkpt lat="59.984266" lon="17.7266236">
        <ele>26.5736</ele>
        <time>2014-06-23T11:48:56Z</time>
      </trkpt>
      <trkpt lat="59.9842416" lon="17.7266274">
        <ele>27.0543</ele>
        <time>2014-06-23T11:48:57Z</time>
      </trkpt>
      <trkpt lat="59.9842146" lon="17.7266308">
        <ele>27.0543</ele>
        <time>2014-06-23T11:48:58Z</time>
      </trkpt>
      <trkpt lat="59.9841875" lon="17.726633">
        <ele>27.0543</ele>
        <time>2014-06-23T11:48:59Z</time>
      </trkpt>
      <trkpt lat="59.9841619" lon="17.7266347">
        <ele>27.5349</ele>
        <time>2014-06-23T11:49:00Z</time>
      </trkpt>
      <trkpt lat="59.9841348" lon="17.726637">
        <ele>27.0543</ele>
        <time>2014-06-23T11:49:01Z</time>
      </trkpt>
      <trkpt lat="59.9841075" lon="17.7266399">
        <ele>26.5736</ele>
        <time>2014-06-23T11:49:02Z</time>
      </trkpt>
      <trkpt lat="59.9840793" lon="17.7266417">
        <ele>26.0929</ele>
        <time>2014-06-23T11:49:03Z</time>
      </trkpt>
      <trkpt lat="59.984054" lon="17.7266377">
        <ele>26.0929</ele>
        <time>2014-06-23T11:49:04Z</time>
      </trkpt>
      <trkpt lat="59.9840276" lon="17.726639">
        <ele>25.6123</ele>
        <time>2014-06-23T11:49:05Z</time>
      </trkpt>
      <trkpt lat="59.9840018" lon="17.7266371">
        <ele>26.0929</ele>
        <time>2014-06-23T11:49:06Z</time>
      </trkpt>
      <trkpt lat="59.9839745" lon="17.7266377">
        <ele>25.1317</ele>
        <time>2014-06-23T11:49:07Z</time>
      </trkpt>
      <trkpt lat="59.9839495" lon="17.7266362">
        <ele>25.1317</ele>
        <time>2014-06-23T11:49:08Z</time>
      </trkpt>
      <trkpt lat="59.9839217" lon="17.7266371">
        <ele>25.6123</ele>
        <time>2014-06-23T11:49:09Z</time>
      </trkpt>
      <trkpt lat="59.9838949" lon="17.7266367">
        <ele>25.1317</ele>
        <time>2014-06-23T11:49:10Z</time>
      </trkpt>
      <trkpt lat="59.9838671" lon="17.7266406">
        <ele>24.651</ele>
        <time>2014-06-23T11:49:11Z</time>
      </trkpt>
      <trkpt lat="59.9838388" lon="17.7266397">
        <ele>24.1703</ele>
        <time>2014-06-23T11:49:12Z</time>
      </trkpt>
      <trkpt lat="59.9838121" lon="17.7266387">
        <ele>23.6896</ele>
        <time>2014-06-23T11:49:13Z</time>
      </trkpt>
      <trkpt lat="59.9837865" lon="17.7266387">
        <ele>23.6896</ele>
        <time>2014-06-23T11:49:14Z</time>
      </trkpt>
      <trkpt lat="59.9837597" lon="17.7266359">
        <ele>23.6896</ele>
        <time>2014-06-23T11:49:15Z</time>
      </trkpt>
      <trkpt lat="59.9837327" lon="17.726635">
        <ele>23.6896</ele>
        <time>2014-06-23T11:49:16Z</time>
      </trkpt>
      <trkpt lat="59.983705" lon="17.7266375">
        <ele>23.6896</ele>
        <time>2014-06-23T11:49:17Z</time>
      </trkpt>
      <trkpt lat="59.9836788" lon="17.7266414">
        <ele>23.6896</ele>
        <time>2014-06-23T11:49:18Z</time>
      </trkpt>
      <trkpt lat="59.9836553" lon="17.7266437">
        <ele>23.6896</ele>
        <time>2014-06-23T11:49:19Z</time>
      </trkpt>
      <trkpt lat="59.9836314" lon="17.7266444">
        <ele>24.1703</ele>
        <time>2014-06-23T11:49:20Z</time>
      </trkpt>
      <trkpt lat="59.9836068" lon="17.7266459">
        <ele>24.1703</ele>
        <time>2014-06-23T11:49:21Z</time>
      </trkpt>
      <trkpt lat="59.9835793" lon="17.7266491">
        <ele>23.6896</ele>
        <time>2014-06-23T11:49:22Z</time>
      </trkpt>
      <trkpt lat="59.9835535" lon="17.726649">
        <ele>24.1703</ele>
        <time>2014-06-23T11:49:23Z</time>
      </trkpt>
      <trkpt lat="59.9835288" lon="17.7266527">
        <ele>24.1703</ele>
        <time>2014-06-23T11:49:24Z</time>
      </trkpt>
      <trkpt lat="59.9835037" lon="17.7266535">
        <ele>24.651</ele>
        <time>2014-06-23T11:49:25Z</time>
      </trkpt>
      <trkpt lat="59.9834771" lon="17.7266496">
        <ele>25.1317</ele>
        <time>2014-06-23T11:49:26Z</time>
      </trkpt>
      <trkpt lat="59.9834501" lon="17.7266491">
        <ele>25.1317</ele>
        <time>2014-06-23T11:49:27Z</time>
      </trkpt>
      <trkpt lat="59.9834246" lon="17.7266474">
        <ele>25.1317</ele>
        <time>2014-06-23T11:49:28Z</time>
      </trkpt>
      <trkpt lat="59.9833998" lon="17.7266466">
        <ele>25.6123</ele>
        <time>2014-06-23T11:49:29Z</time>
      </trkpt>
      <trkpt lat="59.9833748" lon="17.726648">
        <ele>25.1317</ele>
        <time>2014-06-23T11:49:30Z</time>
      </trkpt>
      <trkpt lat="59.9833486" lon="17.7266454">
        <ele>25.1317</ele>
        <time>2014-06-23T11:49:31Z</time>
      </trkpt>
      <trkpt lat="59.9833205" lon="17.7266429">
        <ele>24.651</ele>
        <time>2014-06-23T11:49:32Z</time>
      </trkpt>
      <trkpt lat="59.983292" lon="17.7266418">
        <ele>24.651</ele>
        <time>2014-06-23T11:49:33Z</time>
      </trkpt>
      <trkpt lat="59.9832642" lon="17.7266387">
        <ele>24.651</ele>
        <time>2014-06-23T11:49:34Z</time>
      </trkpt>
      <trkpt lat="59.9832364" lon="17.7266391">
        <ele>24.651</ele>
        <time>2014-06-23T11:49:35Z</time>
      </trkpt>
      <trkpt lat="59.9832084" lon="17.7266388">
        <ele>24.1703</ele>
        <time>2014-06-23T11:49:36Z</time>
      </trkpt>
      <trkpt lat="59.9831835" lon="17.7266365">
        <ele>24.1703</ele>
        <time>2014-06-23T11:49:37Z</time>
      </trkpt>
      <trkpt lat="59.9831585" lon="17.726636">
        <ele>24.1703</ele>
        <time>2014-06-23T11:49:38Z</time>
      </trkpt>
      <trkpt lat="59.9831309" lon="17.7266362">
        <ele>24.1703</ele>
        <time>2014-06-23T11:49:39Z</time>
      </trkpt>
      <trkpt lat="59.9831064" lon="17.7266346">
        <ele>24.1703</ele>
        <time>2014-06-23T11:49:40Z</time>
      </trkpt>
      <trkpt lat="59.9830791" lon="17.7266355">
        <ele>24.651</ele>
        <time>2014-06-23T11:49:41Z</time>
      </trkpt>
      <trkpt lat="59.9830495" lon="17.7266418">
        <ele>25.1317</ele>
        <time>2014-06-23T11:49:42Z</time>
      </trkpt>
      <trkpt lat="59.9830211" lon="17.7266424">
        <ele>25.1317</ele>
        <time>2014-06-23T11:49:43Z</time>
      </trkpt>
      <trkpt lat="59.9829926" lon="17.7266367">
        <ele>25.1317</ele>
        <time>2014-06-23T11:49:44Z</time>
      </trkpt>
      <trkpt lat="59.982966" lon="17.7266335">
        <ele>24.651</ele>
        <time>2014-06-23T11:49:45Z</time>
      </trkpt>
      <trkpt lat="59.9829367" lon="17.7266333">
        <ele>24.1703</ele>
        <time>2014-06-23T11:49:46Z</time>
      </trkpt>
      <trkpt lat="59.9829074" lon="17.726635">
        <ele>23.6896</ele>
        <time>2014-06-23T11:49:47Z</time>
      </trkpt>
      <trkpt lat="59.9828774" lon="17.7266346">
        <ele>23.6896</ele>
        <time>2014-06-23T11:49:48Z</time>
      </trkpt>
      <trkpt lat="59.982847" lon="17.7266313">
        <ele>23.6896</ele>
        <time>2014-06-23T11:49:49Z</time>
      </trkpt>
      <trkpt lat="59.9828165" lon="17.7266307">
        <ele>23.6896</ele>
        <time>2014-06-23T11:49:50Z</time>
      </trkpt>
      <trkpt lat="59.9827854" lon="17.7266314">
        <ele>23.6896</ele>
        <time>2014-06-23T11:49:51Z</time>
      </trkpt>
      <trkpt lat="59.9827585" lon="17.7266383">
        <ele>23.6896</ele>
        <time>2014-06-23T11:49:52Z</time>
      </trkpt>
      <trkpt lat="59.982734" lon="17.72665">
        <ele>24.651</ele>
        <time>2014-06-23T11:49:53Z</time>
      </trkpt>
      <trkpt lat="59.9827087" lon="17.7266631">
        <ele>24.651</ele>
        <time>2014-06-23T11:49:54Z</time>
      </trkpt>
      <trkpt lat="59.9826844" lon="17.7266803">
        <ele>24.651</ele>
        <time>2014-06-23T11:49:55Z</time>
      </trkpt>
      <trkpt lat="59.9826586" lon="17.7267017">
        <ele>24.651</ele>
        <time>2014-06-23T11:49:56Z</time>
      </trkpt>
      <trkpt lat="59.9826374" lon="17.7267287">
        <ele>25.6123</ele>
        <time>2014-06-23T11:49:57Z</time>
      </trkpt>
      <trkpt lat="59.982616" lon="17.726765">
        <ele>26.0929</ele>
        <time>2014-06-23T11:49:58Z</time>
      </trkpt>
      <trkpt lat="59.9825937" lon="17.7267967">
        <ele>26.5736</ele>
        <time>2014-06-23T11:49:59Z</time>
      </trkpt>
      <trkpt lat="59.9825734" lon="17.7268245">
        <ele>27.5349</ele>
        <time>2014-06-23T11:50:00Z</time>
      </trkpt>
      <trkpt lat="59.9825513" lon="17.7268547">
        <ele>28.0155</ele>
        <time>2014-06-23T11:50:01Z</time>
      </trkpt>
      <trkpt lat="59.9825301" lon="17.7268806">
        <ele>28.9769</ele>
        <time>2014-06-23T11:50:02Z</time>
      </trkpt>
      <trkpt lat="59.9825077" lon="17.7269024">
        <ele>29.9381</ele>
        <time>2014-06-23T11:50:03Z</time>
      </trkpt>
      <trkpt lat="59.9824824" lon="17.7269208">
        <ele>30.4188</ele>
        <time>2014-06-23T11:50:04Z</time>
      </trkpt>
      <trkpt lat="59.9824601" lon="17.7269386">
        <ele>30.8995</ele>
        <time>2014-06-23T11:50:05Z</time>
      </trkpt>
      <trkpt lat="59.9824347" lon="17.7269631">
        <ele>31.3801</ele>
        <time>2014-06-23T11:50:06Z</time>
      </trkpt>
      <trkpt lat="59.9824088" lon="17.7269854">
        <ele>31.8607</ele>
        <time>2014-06-23T11:50:07Z</time>
      </trkpt>
      <trkpt lat="59.9823865" lon="17.7270095">
        <ele>31.8607</ele>
        <time>2014-06-23T11:50:08Z</time>
      </trkpt>
      <trkpt lat="59.9823637" lon="17.7270417">
        <ele>31.8607</ele>
        <time>2014-06-23T11:50:09Z</time>
      </trkpt>
      <trkpt lat="59.982342" lon="17.7270744">
        <ele>31.8607</ele>
        <time>2014-06-23T11:50:10Z</time>
      </trkpt>
      <trkpt lat="59.9823223" lon="17.7271105">
        <ele>32.3416</ele>
        <time>2014-06-23T11:50:11Z</time>
      </trkpt>
      <trkpt lat="59.9823027" lon="17.7271542">
        <ele>31.8607</ele>
        <time>2014-06-23T11:50:12Z</time>
      </trkpt>
      <trkpt lat="59.9822876" lon="17.7272026">
        <ele>31.8607</ele>
        <time>2014-06-23T11:50:13Z</time>
      </trkpt>
      <trkpt lat="59.982274" lon="17.7272596">
        <ele>32.8223</ele>
        <time>2014-06-23T11:50:14Z</time>
      </trkpt>
      <trkpt lat="59.9822589" lon="17.7273199">
        <ele>32.8223</ele>
        <time>2014-06-23T11:50:15Z</time>
      </trkpt>
      <trkpt lat="59.9822447" lon="17.7273718">
        <ele>32.8223</ele>
        <time>2014-06-23T11:50:16Z</time>
      </trkpt>
      <trkpt lat="59.9822316" lon="17.7274218">
        <ele>33.3029</ele>
        <time>2014-06-23T11:50:17Z</time>
      </trkpt>
      <trkpt lat="59.9822165" lon="17.7274737">
        <ele>33.7834</ele>
        <time>2014-06-23T11:50:18Z</time>
      </trkpt>
      <trkpt lat="59.9822002" lon="17.7275235">
        <ele>34.2642</ele>
        <time>2014-06-23T11:50:19Z</time>
      </trkpt>
      <trkpt lat="59.9821825" lon="17.7275683">
        <ele>34.2642</ele>
        <time>2014-06-23T11:50:20Z</time>
      </trkpt>
      <trkpt lat="59.9821649" lon="17.727609">
        <ele>34.7449</ele>
        <time>2014-06-23T11:50:21Z</time>
      </trkpt>
      <trkpt lat="59.9821492" lon="17.7276437">
        <ele>35.7061</ele>
        <time>2014-06-23T11:50:22Z</time>
      </trkpt>
      <trkpt lat="59.9821313" lon="17.7276772">
        <ele>35.7061</ele>
        <time>2014-06-23T11:50:23Z</time>
      </trkpt>
      <trkpt lat="59.9821109" lon="17.7277096">
        <ele>35.2255</ele>
        <time>2014-06-23T11:50:24Z</time>
      </trkpt>
      <trkpt lat="59.9820893" lon="17.7277393">
        <ele>34.7449</ele>
        <time>2014-06-23T11:50:25Z</time>
      </trkpt>
      <trkpt lat="59.9820684" lon="17.7277685">
        <ele>34.7449</ele>
        <time>2014-06-23T11:50:26Z</time>
      </trkpt>
      <trkpt lat="59.9820456" lon="17.7277995">
        <ele>34.2642</ele>
        <time>2014-06-23T11:50:27Z</time>
      </trkpt>
      <trkpt lat="59.9820251" lon="17.7278249">
        <ele>33.7834</ele>
        <time>2014-06-23T11:50:28Z</time>
      </trkpt>
      <trkpt lat="59.9820036" lon="17.7278539">
        <ele>33.3029</ele>
        <time>2014-06-23T11:50:29Z</time>
      </trkpt>
      <trkpt lat="59.9819803" lon="17.7278846">
        <ele>32.8223</ele>
        <time>2014-06-23T11:50:30Z</time>
      </trkpt>
      <trkpt lat="59.9819593" lon="17.7279141">
        <ele>32.8223</ele>
        <time>2014-06-23T11:50:31Z</time>
      </trkpt>
      <trkpt lat="59.9819385" lon="17.72794">
        <ele>32.3416</ele>
        <time>2014-06-23T11:50:32Z</time>
      </trkpt>
      <trkpt lat="59.9819172" lon="17.7279664">
        <ele>31.8607</ele>
        <time>2014-06-23T11:50:33Z</time>
      </trkpt>
      <trkpt lat="59.9818984" lon="17.7280011">
        <ele>31.8607</ele>
        <time>2014-06-23T11:50:34Z</time>
      </trkpt>
      <trkpt lat="59.9818745" lon="17.7280362">
        <ele>30.8995</ele>
        <time>2014-06-23T11:50:35Z</time>
      </trkpt>
      <trkpt lat="59.9818524" lon="17.7280644">
        <ele>30.8995</ele>
        <time>2014-06-23T11:50:36Z</time>
      </trkpt>
      <trkpt lat="59.981831" lon="17.7280974">
        <ele>30.4188</ele>
        <time>2014-06-23T11:50:37Z</time>
      </trkpt>
      <trkpt lat="59.9818072" lon="17.7281283">
        <ele>29.9381</ele>
        <time>2014-06-23T11:50:38Z</time>
      </trkpt>
      <trkpt lat="59.9817835" lon="17.7281543">
        <ele>29.4575</ele>
        <time>2014-06-23T11:50:39Z</time>
      </trkpt>
      <trkpt lat="59.9817626" lon="17.7281808">
        <ele>29.9381</ele>
        <time>2014-06-23T11:50:40Z</time>
      </trkpt>
      <trkpt lat="59.9817362" lon="17.7282025">
        <ele>29.9381</ele>
        <time>2014-06-23T11:50:41Z</time>
      </trkpt>
      <trkpt lat="59.9817108" lon="17.7282195">
        <ele>29.9381</ele>
        <time>2014-06-23T11:50:42Z</time>
      </trkpt>
      <trkpt lat="59.9816862" lon="17.7282368">
        <ele>29.9381</ele>
        <time>2014-06-23T11:50:43Z</time>
      </trkpt>
      <trkpt lat="59.9816582" lon="17.7282503">
        <ele>29.4575</ele>
        <time>2014-06-23T11:50:44Z</time>
      </trkpt>
      <trkpt lat="59.9816293" lon="17.7282657">
        <ele>28.9769</ele>
        <time>2014-06-23T11:50:45Z</time>
      </trkpt>
      <trkpt lat="59.9816032" lon="17.7282825">
        <ele>28.9769</ele>
        <time>2014-06-23T11:50:46Z</time>
      </trkpt>
      <trkpt lat="59.9815775" lon="17.7282984">
        <ele>28.9769</ele>
        <time>2014-06-23T11:50:47Z</time>
      </trkpt>
      <trkpt lat="59.981556" lon="17.7283134">
        <ele>28.9769</ele>
        <time>2014-06-23T11:50:48Z</time>
      </trkpt>
      <trkpt lat="59.9815299" lon="17.7283321">
        <ele>29.4575</ele>
        <time>2014-06-23T11:50:49Z</time>
      </trkpt>
      <trkpt lat="59.9815013" lon="17.7283514">
        <ele>28.4962</ele>
        <time>2014-06-23T11:50:50Z</time>
      </trkpt>
      <trkpt lat="59.981476" lon="17.7283756">
        <ele>28.0155</ele>
        <time>2014-06-23T11:50:51Z</time>
      </trkpt>
      <trkpt lat="59.981453" lon="17.7283959">
        <ele>28.0155</ele>
        <time>2014-06-23T11:50:52Z</time>
      </trkpt>
      <trkpt lat="59.9814309" lon="17.7284163">
        <ele>28.0155</ele>
        <time>2014-06-23T11:50:53Z</time>
      </trkpt>
      <trkpt lat="59.9814116" lon="17.7284451">
        <ele>28.4962</ele>
        <time>2014-06-23T11:50:54Z</time>
      </trkpt>
      <trkpt lat="59.9813889" lon="17.7284751">
        <ele>27.5349</ele>
        <time>2014-06-23T11:50:55Z</time>
      </trkpt>
      <trkpt lat="59.9813682" lon="17.7285075">
        <ele>27.5349</ele>
        <time>2014-06-23T11:50:56Z</time>
      </trkpt>
      <trkpt lat="59.9813483" lon="17.7285434">
        <ele>28.0155</ele>
        <time>2014-06-23T11:50:57Z</time>
      </trkpt>
      <trkpt lat="59.9813249" lon="17.728579">
        <ele>27.5349</ele>
        <time>2014-06-23T11:50:58Z</time>
      </trkpt>
      <trkpt lat="59.9813048" lon="17.7286144">
        <ele>28.0155</ele>
        <time>2014-06-23T11:50:59Z</time>
      </trkpt>
      <trkpt lat="59.9812831" lon="17.7286512">
        <ele>27.5349</ele>
        <time>2014-06-23T11:51:00Z</time>
      </trkpt>
      <trkpt lat="59.9812639" lon="17.728688">
        <ele>27.5349</ele>
        <time>2014-06-23T11:51:01Z</time>
      </trkpt>
      <trkpt lat="59.9812431" lon="17.7287225">
        <ele>27.5349</ele>
        <time>2014-06-23T11:51:02Z</time>
      </trkpt>
      <trkpt lat="59.9812179" lon="17.7287502">
        <ele>27.5349</ele>
        <time>2014-06-23T11:51:03Z</time>
      </trkpt>
      <trkpt lat="59.9811918" lon="17.7287736">
        <ele>27.5349</ele>
        <time>2014-06-23T11:51:04Z</time>
      </trkpt>
      <trkpt lat="59.9811696" lon="17.7287921">
        <ele>27.5349</ele>
        <time>2014-06-23T11:51:05Z</time>
      </trkpt>
      <trkpt lat="59.9811455" lon="17.7288123">
        <ele>27.5349</ele>
        <time>2014-06-23T11:51:06Z</time>
      </trkpt>
      <trkpt lat="59.9811211" lon="17.7288272">
        <ele>27.5349</ele>
        <time>2014-06-23T11:51:07Z</time>
      </trkpt>
      <trkpt lat="59.9810972" lon="17.7288423">
        <ele>27.0543</ele>
        <time>2014-06-23T11:51:08Z</time>
      </trkpt>
      <trkpt lat="59.9810745" lon="17.7288618">
        <ele>26.5736</ele>
        <time>2014-06-23T11:51:09Z</time>
      </trkpt>
      <trkpt lat="59.9810552" lon="17.7288795">
        <ele>26.0929</ele>
        <time>2014-06-23T11:51:10Z</time>
      </trkpt>
      <trkpt lat="59.9810343" lon="17.7289004">
        <ele>26.0929</ele>
        <time>2014-06-23T11:51:11Z</time>
      </trkpt>
      <trkpt lat="59.9810091" lon="17.7289127">
        <ele>26.0929</ele>
        <time>2014-06-23T11:51:12Z</time>
      </trkpt>
      <trkpt lat="59.9809841" lon="17.7289123">
        <ele>25.6123</ele>
        <time>2014-06-23T11:51:13Z</time>
      </trkpt>
      <trkpt lat="59.980961" lon="17.7289138">
        <ele>25.6123</ele>
        <time>2014-06-23T11:51:14Z</time>
      </trkpt>
      <trkpt lat="59.9809361" lon="17.728918">
        <ele>25.6123</ele>
        <time>2014-06-23T11:51:15Z</time>
      </trkpt>
      <trkpt lat="59.9809123" lon="17.7289174">
        <ele>25.1317</ele>
        <time>2014-06-23T11:51:16Z</time>
      </trkpt>
      <trkpt lat="59.980886" lon="17.7289176">
        <ele>25.1317</ele>
        <time>2014-06-23T11:51:17Z</time>
      </trkpt>
      <trkpt lat="59.9808585" lon="17.7289141">
        <ele>25.1317</ele>
        <time>2014-06-23T11:51:18Z</time>
      </trkpt>
      <trkpt lat="59.9808329" lon="17.728905">
        <ele>25.1317</ele>
        <time>2014-06-23T11:51:19Z</time>
      </trkpt>
      <trkpt lat="59.9808095" lon="17.7288899">
        <ele>25.1317</ele>
        <time>2014-06-23T11:51:20Z</time>
      </trkpt>
      <trkpt lat="59.9807831" lon="17.7288707">
        <ele>24.651</ele>
        <time>2014-06-23T11:51:21Z</time>
      </trkpt>
      <trkpt lat="59.9807593" lon="17.728846">
        <ele>24.651</ele>
        <time>2014-06-23T11:51:22Z</time>
      </trkpt>
      <trkpt lat="59.9807402" lon="17.7288189">
        <ele>24.1703</ele>
        <time>2014-06-23T11:51:23Z</time>
      </trkpt>
      <trkpt lat="59.980721" lon="17.728787">
        <ele>24.1703</ele>
        <time>2014-06-23T11:51:24Z</time>
      </trkpt>
      <trkpt lat="59.9807028" lon="17.7287463">
        <ele>23.6896</ele>
        <time>2014-06-23T11:51:25Z</time>
      </trkpt>
      <trkpt lat="59.9806844" lon="17.7287045">
        <ele>23.6896</ele>
        <time>2014-06-23T11:51:26Z</time>
      </trkpt>
      <trkpt lat="59.9806651" lon="17.7286688">
        <ele>23.6896</ele>
        <time>2014-06-23T11:51:27Z</time>
      </trkpt>
      <trkpt lat="59.9806455" lon="17.7286295">
        <ele>23.209</ele>
        <time>2014-06-23T11:51:28Z</time>
      </trkpt>
      <trkpt lat="59.9806232" lon="17.7285867">
        <ele>22.7283</ele>
        <time>2014-06-23T11:51:29Z</time>
      </trkpt>
      <trkpt lat="59.9806052" lon="17.728544">
        <ele>22.2476</ele>
        <time>2014-06-23T11:51:30Z</time>
      </trkpt>
      <trkpt lat="59.9805844" lon="17.728509">
        <ele>22.2476</ele>
        <time>2014-06-23T11:51:31Z</time>
      </trkpt>
      <trkpt lat="59.9805626" lon="17.7284757">
        <ele>22.2476</ele>
        <time>2014-06-23T11:51:32Z</time>
      </trkpt>
      <trkpt lat="59.9805439" lon="17.7284389">
        <ele>21.767</ele>
        <time>2014-06-23T11:51:33Z</time>
      </trkpt>
      <trkpt lat="59.9805248" lon="17.7284013">
        <ele>22.2476</ele>
        <time>2014-06-23T11:51:34Z</time>
      </trkpt>
      <trkpt lat="59.9805037" lon="17.7283657">
        <ele>22.2476</ele>
        <time>2014-06-23T11:51:35Z</time>
      </trkpt>
      <trkpt lat="59.9804848" lon="17.7283331">
        <ele>22.2476</ele>
        <time>2014-06-23T11:51:36Z</time>
      </trkpt>
      <trkpt lat="59.9804679" lon="17.7283005">
        <ele>21.767</ele>
        <time>2014-06-23T11:51:37Z</time>
      </trkpt>
      <trkpt lat="59.9804503" lon="17.7282618">
        <ele>22.2476</ele>
        <time>2014-06-23T11:51:38Z</time>
      </trkpt>
      <trkpt lat="59.9804306" lon="17.7282259">
        <ele>22.7283</ele>
        <time>2014-06-23T11:51:39Z</time>
      </trkpt>
      <trkpt lat="59.9804104" lon="17.7281928">
        <ele>22.7283</ele>
        <time>2014-06-23T11:51:40Z</time>
      </trkpt>
      <trkpt lat="59.9803889" lon="17.7281604">
        <ele>22.7283</ele>
        <time>2014-06-23T11:51:41Z</time>
      </trkpt>
      <trkpt lat="59.9803659" lon="17.7281285">
        <ele>23.209</ele>
        <time>2014-06-23T11:51:42Z</time>
      </trkpt>
      <trkpt lat="59.9803475" lon="17.7280907">
        <ele>23.209</ele>
        <time>2014-06-23T11:51:43Z</time>
      </trkpt>
      <trkpt lat="59.9803315" lon="17.728047">
        <ele>23.6896</ele>
        <time>2014-06-23T11:51:44Z</time>
      </trkpt>
      <trkpt lat="59.9803125" lon="17.7280114">
        <ele>23.6896</ele>
        <time>2014-06-23T11:51:45Z</time>
      </trkpt>
      <trkpt lat="59.9802942" lon="17.7279772">
        <ele>23.6896</ele>
        <time>2014-06-23T11:51:46Z</time>
      </trkpt>
      <trkpt lat="59.9802771" lon="17.7279392">
        <ele>23.6896</ele>
        <time>2014-06-23T11:51:47Z</time>
      </trkpt>
      <trkpt lat="59.9802585" lon="17.7279045">
        <ele>23.6896</ele>
        <time>2014-06-23T11:51:48Z</time>
      </trkpt>
      <trkpt lat="59.9802363" lon="17.7278716">
        <ele>23.6896</ele>
        <time>2014-06-23T11:51:49Z</time>
      </trkpt>
      <trkpt lat="59.9802164" lon="17.7278336">
        <ele>23.6896</ele>
        <time>2014-06-23T11:51:50Z</time>
      </trkpt>
      <trkpt lat="59.9801979" lon="17.7277973">
        <ele>24.1703</ele>
        <time>2014-06-23T11:51:51Z</time>
      </trkpt>
      <trkpt lat="59.9801776" lon="17.7277602">
        <ele>23.6896</ele>
        <time>2014-06-23T11:51:52Z</time>
      </trkpt>
      <trkpt lat="59.9801548" lon="17.7277225">
        <ele>24.1703</ele>
        <time>2014-06-23T11:51:53Z</time>
      </trkpt>
      <trkpt lat="59.9801342" lon="17.7276856">
        <ele>24.1703</ele>
        <time>2014-06-23T11:51:54Z</time>
      </trkpt>
      <trkpt lat="59.9801145" lon="17.7276486">
        <ele>24.1703</ele>
        <time>2014-06-23T11:51:55Z</time>
      </trkpt>
      <trkpt lat="59.9800933" lon="17.7276115">
        <ele>24.1703</ele>
        <time>2014-06-23T11:51:56Z</time>
      </trkpt>
      <trkpt lat="59.9800716" lon="17.727571">
        <ele>24.1703</ele>
        <time>2014-06-23T11:51:57Z</time>
      </trkpt>
      <trkpt lat="59.9800511" lon="17.7275279">
        <ele>24.1703</ele>
        <time>2014-06-23T11:51:58Z</time>
      </trkpt>
      <trkpt lat="59.9800306" lon="17.7274901">
        <ele>24.1703</ele>
        <time>2014-06-23T11:51:59Z</time>
      </trkpt>
      <trkpt lat="59.9800069" lon="17.727456">
        <ele>24.1703</ele>
        <time>2014-06-23T11:52:00Z</time>
      </trkpt>
      <trkpt lat="59.9799841" lon="17.7274182">
        <ele>24.1703</ele>
        <time>2014-06-23T11:52:01Z</time>
      </trkpt>
      <trkpt lat="59.9799629" lon="17.7273806">
        <ele>24.1703</ele>
        <time>2014-06-23T11:52:02Z</time>
      </trkpt>
      <trkpt lat="59.9799424" lon="17.7273392">
        <ele>24.1703</ele>
        <time>2014-06-23T11:52:03Z</time>
      </trkpt>
      <trkpt lat="59.9799237" lon="17.7272971">
        <ele>23.6896</ele>
        <time>2014-06-23T11:52:04Z</time>
      </trkpt>
      <trkpt lat="59.9799048" lon="17.7272575">
        <ele>24.1703</ele>
        <time>2014-06-23T11:52:05Z</time>
      </trkpt>
      <trkpt lat="59.9798841" lon="17.727219">
        <ele>23.6896</ele>
        <time>2014-06-23T11:52:06Z</time>
      </trkpt>
      <trkpt lat="59.9798626" lon="17.7271816">
        <ele>23.6896</ele>
        <time>2014-06-23T11:52:07Z</time>
      </trkpt>
      <trkpt lat="59.9798421" lon="17.7271446">
        <ele>23.6896</ele>
        <time>2014-06-23T11:52:08Z</time>
      </trkpt>
      <trkpt lat="59.979822" lon="17.7271065">
        <ele>23.209</ele>
        <time>2014-06-23T11:52:09Z</time>
      </trkpt>
      <trkpt lat="59.9798005" lon="17.727069">
        <ele>23.209</ele>
        <time>2014-06-23T11:52:10Z</time>
      </trkpt>
      <trkpt lat="59.9797794" lon="17.7270298">
        <ele>23.209</ele>
        <time>2014-06-23T11:52:11Z</time>
      </trkpt>
      <trkpt lat="59.9797592" lon="17.7269913">
        <ele>22.7283</ele>
        <time>2014-06-23T11:52:12Z</time>
      </trkpt>
      <trkpt lat="59.9797374" lon="17.7269521">
        <ele>22.7283</ele>
        <time>2014-06-23T11:52:13Z</time>
      </trkpt>
      <trkpt lat="59.9797134" lon="17.7269154">
        <ele>22.2476</ele>
        <time>2014-06-23T11:52:14Z</time>
      </trkpt>
      <trkpt lat="59.979692" lon="17.7268775">
        <ele>21.767</ele>
        <time>2014-06-23T11:52:15Z</time>
      </trkpt>
      <trkpt lat="59.9796732" lon="17.7268352">
        <ele>22.2476</ele>
        <time>2014-06-23T11:52:16Z</time>
      </trkpt>
      <trkpt lat="59.9796536" lon="17.7267983">
        <ele>22.2476</ele>
        <time>2014-06-23T11:52:17Z</time>
      </trkpt>
      <trkpt lat="59.9796345" lon="17.7267599">
        <ele>22.2476</ele>
        <time>2014-06-23T11:52:18Z</time>
      </trkpt>
      <trkpt lat="59.9796179" lon="17.7267185">
        <ele>22.2476</ele>
        <time>2014-06-23T11:52:19Z</time>
      </trkpt>
      <trkpt lat="59.9796001" lon="17.7266794">
        <ele>22.7283</ele>
        <time>2014-06-23T11:52:20Z</time>
      </trkpt>
      <trkpt lat="59.9795805" lon="17.7266412">
        <ele>22.7283</ele>
        <time>2014-06-23T11:52:21Z</time>
      </trkpt>
      <trkpt lat="59.9795622" lon="17.7266031">
        <ele>22.7283</ele>
        <time>2014-06-23T11:52:22Z</time>
      </trkpt>
      <trkpt lat="59.9795453" lon="17.726558">
        <ele>22.7283</ele>
        <time>2014-06-23T11:52:23Z</time>
      </trkpt>
      <trkpt lat="59.9795255" lon="17.7265123">
        <ele>22.2476</ele>
        <time>2014-06-23T11:52:24Z</time>
      </trkpt>
      <trkpt lat="59.9795027" lon="17.7264749">
        <ele>22.2476</ele>
        <time>2014-06-23T11:52:25Z</time>
      </trkpt>
      <trkpt lat="59.9794806" lon="17.7264391">
        <ele>21.767</ele>
        <time>2014-06-23T11:52:26Z</time>
      </trkpt>
      <trkpt lat="59.9794611" lon="17.7264092">
        <ele>21.767</ele>
        <time>2014-06-23T11:52:27Z</time>
      </trkpt>
      <trkpt lat="59.979437" lon="17.726388">
        <ele>21.2864</ele>
        <time>2014-06-23T11:52:28Z</time>
      </trkpt>
      <trkpt lat="59.9794106" lon="17.7263728">
        <ele>21.2864</ele>
        <time>2014-06-23T11:52:29Z</time>
      </trkpt>
      <trkpt lat="59.9793826" lon="17.7263673">
        <ele>20.8057</ele>
        <time>2014-06-23T11:52:30Z</time>
      </trkpt>
      <trkpt lat="59.9793535" lon="17.7263616">
        <ele>20.325</ele>
        <time>2014-06-23T11:52:31Z</time>
      </trkpt>
      <trkpt lat="59.9793257" lon="17.7263563">
        <ele>19.8444</ele>
        <time>2014-06-23T11:52:32Z</time>
      </trkpt>
      <trkpt lat="59.9792945" lon="17.7263496">
        <ele>19.3638</ele>
        <time>2014-06-23T11:52:33Z</time>
      </trkpt>
      <trkpt lat="59.979265" lon="17.726344">
        <ele>18.8831</ele>
        <time>2014-06-23T11:52:34Z</time>
      </trkpt>
      <trkpt lat="59.9792376" lon="17.7263356">
        <ele>19.3638</ele>
        <time>2014-06-23T11:52:35Z</time>
      </trkpt>
      <trkpt lat="59.9792064" lon="17.7263279">
        <ele>18.8831</ele>
        <time>2014-06-23T11:52:36Z</time>
      </trkpt>
      <trkpt lat="59.9791764" lon="17.7263192">
        <ele>18.8831</ele>
        <time>2014-06-23T11:52:37Z</time>
      </trkpt>
      <trkpt lat="59.9791512" lon="17.7263031">
        <ele>17.9218</ele>
        <time>2014-06-23T11:52:38Z</time>
      </trkpt>
      <trkpt lat="59.9791301" lon="17.7262813">
        <ele>17.9218</ele>
        <time>2014-06-23T11:52:39Z</time>
      </trkpt>
      <trkpt lat="59.9791071" lon="17.7262609">
        <ele>17.4412</ele>
        <time>2014-06-23T11:52:40Z</time>
      </trkpt>
      <trkpt lat="59.9790805" lon="17.7262347">
        <ele>17.4412</ele>
        <time>2014-06-23T11:52:41Z</time>
      </trkpt>
      <trkpt lat="59.9790541" lon="17.7262086">
        <ele>16.9604</ele>
        <time>2014-06-23T11:52:42Z</time>
      </trkpt>
      <trkpt lat="59.9790282" lon="17.7261825">
        <ele>16.4797</ele>
        <time>2014-06-23T11:52:43Z</time>
      </trkpt>
      <trkpt lat="59.9789999" lon="17.726157">
        <ele>16.4797</ele>
        <time>2014-06-23T11:52:44Z</time>
      </trkpt>
      <trkpt lat="59.9789742" lon="17.7261304">
        <ele>16.4797</ele>
        <time>2014-06-23T11:52:45Z</time>
      </trkpt>
      <trkpt lat="59.9789517" lon="17.7260982">
        <ele>16.4797</ele>
        <time>2014-06-23T11:52:46Z</time>
      </trkpt>
      <trkpt lat="59.9789298" lon="17.7260653">
        <ele>16.4797</ele>
        <time>2014-06-23T11:52:47Z</time>
      </trkpt>
      <trkpt lat="59.9789059" lon="17.7260305">
        <ele>15.999</ele>
        <time>2014-06-23T11:52:48Z</time>
      </trkpt>
      <trkpt lat="59.9788831" lon="17.7259922">
        <ele>15.5184</ele>
        <time>2014-06-23T11:52:49Z</time>
      </trkpt>
      <trkpt lat="59.9788624" lon="17.7259529">
        <ele>15.5184</ele>
        <time>2014-06-23T11:52:50Z</time>
      </trkpt>
      <trkpt lat="59.9788427" lon="17.7259125">
        <ele>15.5184</ele>
        <time>2014-06-23T11:52:51Z</time>
      </trkpt>
      <trkpt lat="59.9788201" lon="17.7258766">
        <ele>15.5184</ele>
        <time>2014-06-23T11:52:52Z</time>
      </trkpt>
      <trkpt lat="59.9787988" lon="17.7258415">
        <ele>15.5184</ele>
        <time>2014-06-23T11:52:53Z</time>
      </trkpt>
      <trkpt lat="59.978778" lon="17.7258123">
        <ele>15.5184</ele>
        <time>2014-06-23T11:52:54Z</time>
      </trkpt>
      <trkpt lat="59.9787549" lon="17.7257852">
        <ele>15.5184</ele>
        <time>2014-06-23T11:52:55Z</time>
      </trkpt>
      <trkpt lat="59.9787307" lon="17.7257589">
        <ele>15.5184</ele>
        <time>2014-06-23T11:52:56Z</time>
      </trkpt>
      <trkpt lat="59.9787067" lon="17.7257404">
        <ele>15.0377</ele>
        <time>2014-06-23T11:52:57Z</time>
      </trkpt>
      <trkpt lat="59.9786822" lon="17.725723">
        <ele>15.5184</ele>
        <time>2014-06-23T11:52:58Z</time>
      </trkpt>
      <trkpt lat="59.97866" lon="17.7257064">
        <ele>15.5184</ele>
        <time>2014-06-23T11:52:59Z</time>
      </trkpt>
      <trkpt lat="59.9786359" lon="17.7256916">
        <ele>15.999</ele>
        <time>2014-06-23T11:53:00Z</time>
      </trkpt>
      <trkpt lat="59.9786092" lon="17.7256774">
        <ele>15.999</ele>
        <time>2014-06-23T11:53:01Z</time>
      </trkpt>
      <trkpt lat="59.9785843" lon="17.7256641">
        <ele>15.999</ele>
        <time>2014-06-23T11:53:02Z</time>
      </trkpt>
      <trkpt lat="59.978561" lon="17.7256473">
        <ele>16.4797</ele>
        <time>2014-06-23T11:53:03Z</time>
      </trkpt>
      <trkpt lat="59.9785375" lon="17.7256313">
        <ele>16.4797</ele>
        <time>2014-06-23T11:53:04Z</time>
      </trkpt>
      <trkpt lat="59.9785132" lon="17.7256147">
        <ele>16.9604</ele>
        <time>2014-06-23T11:53:05Z</time>
      </trkpt>
      <trkpt lat="59.9784906" lon="17.7255934">
        <ele>16.9604</ele>
        <time>2014-06-23T11:53:06Z</time>
      </trkpt>
      <trkpt lat="59.9784712" lon="17.7255724">
        <ele>16.9604</ele>
        <time>2014-06-23T11:53:07Z</time>
      </trkpt>
      <trkpt lat="59.9784467" lon="17.7255535">
        <ele>17.4412</ele>
        <time>2014-06-23T11:53:08Z</time>
      </trkpt>
      <trkpt lat="59.9784181" lon="17.7255348">
        <ele>17.9218</ele>
        <time>2014-06-23T11:53:09Z</time>
      </trkpt>
      <trkpt lat="59.9783909" lon="17.7255166">
        <ele>17.9218</ele>
        <time>2014-06-23T11:53:10Z</time>
      </trkpt>
      <trkpt lat="59.9783667" lon="17.725498">
        <ele>18.4023</ele>
        <time>2014-06-23T11:53:11Z</time>
      </trkpt>
      <trkpt lat="59.9783358" lon="17.7254871">
        <ele>17.9218</ele>
        <time>2014-06-23T11:53:12Z</time>
      </trkpt>
      <trkpt lat="59.9783041" lon="17.725473">
        <ele>17.9218</ele>
        <time>2014-06-23T11:53:13Z</time>
      </trkpt>
      <trkpt lat="59.9782767" lon="17.7254518">
        <ele>17.9218</ele>
        <time>2014-06-23T11:53:14Z</time>
      </trkpt>
      <trkpt lat="59.978248" lon="17.7254338">
        <ele>17.4412</ele>
        <time>2014-06-23T11:53:15Z</time>
      </trkpt>
      <trkpt lat="59.9782211" lon="17.7254111">
        <ele>17.4412</ele>
        <time>2014-06-23T11:53:16Z</time>
      </trkpt>
      <trkpt lat="59.9781902" lon="17.7253937">
        <ele>17.4412</ele>
        <time>2014-06-23T11:53:17Z</time>
      </trkpt>
      <trkpt lat="59.9781631" lon="17.7253746">
        <ele>17.9218</ele>
        <time>2014-06-23T11:53:18Z</time>
      </trkpt>
      <trkpt lat="59.9781361" lon="17.7253524">
        <ele>17.9218</ele>
        <time>2014-06-23T11:53:19Z</time>
      </trkpt>
      <trkpt lat="59.9781062" lon="17.725335">
        <ele>17.9218</ele>
        <time>2014-06-23T11:53:20Z</time>
      </trkpt>
      <trkpt lat="59.9780762" lon="17.7253176">
        <ele>17.9218</ele>
        <time>2014-06-23T11:53:21Z</time>
      </trkpt>
      <trkpt lat="59.9780492" lon="17.7252991">
        <ele>17.9218</ele>
        <time>2014-06-23T11:53:22Z</time>
      </trkpt>
      <trkpt lat="59.9780224" lon="17.7252821">
        <ele>17.9218</ele>
        <time>2014-06-23T11:53:23Z</time>
      </trkpt>
      <trkpt lat="59.9779912" lon="17.7252707">
        <ele>17.9218</ele>
        <time>2014-06-23T11:53:24Z</time>
      </trkpt>
      <trkpt lat="59.977955" lon="17.7252665">
        <ele>17.9218</ele>
        <time>2014-06-23T11:53:25Z</time>
      </trkpt>
      <trkpt lat="59.9779192" lon="17.7252613">
        <ele>17.9218</ele>
        <time>2014-06-23T11:53:26Z</time>
      </trkpt>
      <trkpt lat="59.9778898" lon="17.72525">
        <ele>18.4023</ele>
        <time>2014-06-23T11:53:27Z</time>
      </trkpt>
      <trkpt lat="59.9778626" lon="17.7252381">
        <ele>18.4023</ele>
        <time>2014-06-23T11:53:28Z</time>
      </trkpt>
      <trkpt lat="59.9778353" lon="17.725229">
        <ele>18.8831</ele>
        <time>2014-06-23T11:53:29Z</time>
      </trkpt>
      <trkpt lat="59.9778097" lon="17.7252198">
        <ele>18.8831</ele>
        <time>2014-06-23T11:53:30Z</time>
      </trkpt>
      <trkpt lat="59.9777843" lon="17.725209">
        <ele>18.8831</ele>
        <time>2014-06-23T11:53:31Z</time>
      </trkpt>
      <trkpt lat="59.977755" lon="17.7252023">
        <ele>19.3638</ele>
        <time>2014-06-23T11:53:32Z</time>
      </trkpt>
      <trkpt lat="59.9777234" lon="17.7251955">
        <ele>19.8444</ele>
        <time>2014-06-23T11:53:33Z</time>
      </trkpt>
      <trkpt lat="59.977696" lon="17.7251877">
        <ele>20.325</ele>
        <time>2014-06-23T11:53:34Z</time>
      </trkpt>
      <trkpt lat="59.9776649" lon="17.7251851">
        <ele>20.8057</ele>
        <time>2014-06-23T11:53:35Z</time>
      </trkpt>
      <trkpt lat="59.9776305" lon="17.7251858">
        <ele>21.2864</ele>
        <time>2014-06-23T11:53:36Z</time>
      </trkpt>
      <trkpt lat="59.9775966" lon="17.7251835">
        <ele>21.767</ele>
        <time>2014-06-23T11:53:37Z</time>
      </trkpt>
      <trkpt lat="59.9775585" lon="17.7251842">
        <ele>22.2476</ele>
        <time>2014-06-23T11:53:38Z</time>
      </trkpt>
      <trkpt lat="59.9775234" lon="17.7251831">
        <ele>22.7283</ele>
        <time>2014-06-23T11:53:39Z</time>
      </trkpt>
      <trkpt lat="59.9774927" lon="17.7251799">
        <ele>22.7283</ele>
        <time>2014-06-23T11:53:40Z</time>
      </trkpt>
      <trkpt lat="59.9774645" lon="17.7251742">
        <ele>23.209</ele>
        <time>2014-06-23T11:53:41Z</time>
      </trkpt>
      <trkpt lat="59.9774406" lon="17.7251687">
        <ele>23.209</ele>
        <time>2014-06-23T11:53:42Z</time>
      </trkpt>
      <trkpt lat="59.9774161" lon="17.7251617">
        <ele>23.209</ele>
        <time>2014-06-23T11:53:43Z</time>
      </trkpt>
      <trkpt lat="59.9773893" lon="17.7251577">
        <ele>23.6896</ele>
        <time>2014-06-23T11:53:44Z</time>
      </trkpt>
      <trkpt lat="59.9773681" lon="17.7251498">
        <ele>23.6896</ele>
        <time>2014-06-23T11:53:45Z</time>
      </trkpt>
      <trkpt lat="59.977351" lon="17.7251333">
        <ele>24.1703</ele>
        <time>2014-06-23T11:53:46Z</time>
      </trkpt>
      <trkpt lat="59.9773318" lon="17.7251195">
        <ele>24.1703</ele>
        <time>2014-06-23T11:53:47Z</time>
      </trkpt>
      <trkpt lat="59.977308" lon="17.7251085">
        <ele>23.6896</ele>
        <time>2014-06-23T11:53:48Z</time>
      </trkpt>
      <trkpt lat="59.9772811" lon="17.7250971">
        <ele>23.6896</ele>
        <time>2014-06-23T11:53:49Z</time>
      </trkpt>
      <trkpt lat="59.9772514" lon="17.7250915">
        <ele>23.6896</ele>
        <time>2014-06-23T11:53:50Z</time>
      </trkpt>
      <trkpt lat="59.9772235" lon="17.7250857">
        <ele>23.6896</ele>
        <time>2014-06-23T11:53:51Z</time>
      </trkpt>
      <trkpt lat="59.9771975" lon="17.7250769">
        <ele>23.6896</ele>
        <time>2014-06-23T11:53:52Z</time>
      </trkpt>
      <trkpt lat="59.9771718" lon="17.7250733">
        <ele>24.1703</ele>
        <time>2014-06-23T11:53:53Z</time>
      </trkpt>
      <trkpt lat="59.9771443" lon="17.7250686">
        <ele>24.1703</ele>
        <time>2014-06-23T11:53:54Z</time>
      </trkpt>
      <trkpt lat="59.977113" lon="17.7250638">
        <ele>24.651</ele>
        <time>2014-06-23T11:53:55Z</time>
      </trkpt>
      <trkpt lat="59.9770843" lon="17.7250645">
        <ele>24.1703</ele>
        <time>2014-06-23T11:53:56Z</time>
      </trkpt>
      <trkpt lat="59.9770576" lon="17.7250666">
        <ele>24.1703</ele>
        <time>2014-06-23T11:53:57Z</time>
      </trkpt>
      <trkpt lat="59.9770317" lon="17.7250712">
        <ele>24.651</ele>
        <time>2014-06-23T11:53:58Z</time>
      </trkpt>
      <trkpt lat="59.9770045" lon="17.7250814">
        <ele>24.1703</ele>
        <time>2014-06-23T11:53:59Z</time>
      </trkpt>
      <trkpt lat="59.9769743" lon="17.7250949">
        <ele>24.1703</ele>
        <time>2014-06-23T11:54:00Z</time>
      </trkpt>
      <trkpt lat="59.976953" lon="17.7251075">
        <ele>24.651</ele>
        <time>2014-06-23T11:54:01Z</time>
      </trkpt>
      <trkpt lat="59.9769345" lon="17.7251261">
        <ele>25.1317</ele>
        <time>2014-06-23T11:54:02Z</time>
      </trkpt>
      <trkpt lat="59.9769148" lon="17.7251474">
        <ele>24.651</ele>
        <time>2014-06-23T11:54:03Z</time>
      </trkpt>
      <trkpt lat="59.9768931" lon="17.7251713">
        <ele>24.651</ele>
        <time>2014-06-23T11:54:04Z</time>
      </trkpt>
      <trkpt lat="59.9768702" lon="17.7251914">
        <ele>24.651</ele>
        <time>2014-06-23T11:54:05Z</time>
      </trkpt>
      <trkpt lat="59.9768478" lon="17.7252168">
        <ele>24.1703</ele>
        <time>2014-06-23T11:54:06Z</time>
      </trkpt>
      <trkpt lat="59.9768278" lon="17.7252437">
        <ele>23.6896</ele>
        <time>2014-06-23T11:54:07Z</time>
      </trkpt>
      <trkpt lat="59.9768063" lon="17.7252639">
        <ele>23.6896</ele>
        <time>2014-06-23T11:54:08Z</time>
      </trkpt>
      <trkpt lat="59.9767867" lon="17.7252844">
        <ele>24.1703</ele>
        <time>2014-06-23T11:54:09Z</time>
      </trkpt>
      <trkpt lat="59.9767645" lon="17.7253114">
        <ele>23.6896</ele>
        <time>2014-06-23T11:54:10Z</time>
      </trkpt>
      <trkpt lat="59.9767422" lon="17.7253349">
        <ele>23.6896</ele>
        <time>2014-06-23T11:54:11Z</time>
      </trkpt>
      <trkpt lat="59.9767209" lon="17.7253602">
        <ele>24.1703</ele>
        <time>2014-06-23T11:54:12Z</time>
      </trkpt>
      <trkpt lat="59.9767028" lon="17.7253855">
        <ele>24.651</ele>
        <time>2014-06-23T11:54:13Z</time>
      </trkpt>
      <trkpt lat="59.9766862" lon="17.7254099">
        <ele>25.1317</ele>
        <time>2014-06-23T11:54:14Z</time>
      </trkpt>
      <trkpt lat="59.9766662" lon="17.725435">
        <ele>25.6123</ele>
        <time>2014-06-23T11:54:15Z</time>
      </trkpt>
      <trkpt lat="59.9766428" lon="17.7254604">
        <ele>25.6123</ele>
        <time>2014-06-23T11:54:16Z</time>
      </trkpt>
      <trkpt lat="59.9766202" lon="17.7254867">
        <ele>25.6123</ele>
        <time>2014-06-23T11:54:17Z</time>
      </trkpt>
      <trkpt lat="59.9766017" lon="17.7255115">
        <ele>26.0929</ele>
        <time>2014-06-23T11:54:18Z</time>
      </trkpt>
      <trkpt lat="59.9765822" lon="17.7255348">
        <ele>26.5736</ele>
        <time>2014-06-23T11:54:19Z</time>
      </trkpt>
      <trkpt lat="59.9765604" lon="17.7255572">
        <ele>27.0543</ele>
        <time>2014-06-23T11:54:20Z</time>
      </trkpt>
      <trkpt lat="59.9765392" lon="17.7255825">
        <ele>27.5349</ele>
        <time>2014-06-23T11:54:21Z</time>
      </trkpt>
      <trkpt lat="59.9765158" lon="17.7256098">
        <ele>27.5349</ele>
        <time>2014-06-23T11:54:22Z</time>
      </trkpt>
      <trkpt lat="59.9764931" lon="17.7256365">
        <ele>27.5349</ele>
        <time>2014-06-23T11:54:23Z</time>
      </trkpt>
      <trkpt lat="59.9764729" lon="17.7256551">
        <ele>27.5349</ele>
        <time>2014-06-23T11:54:24Z</time>
      </trkpt>
      <trkpt lat="59.9764513" lon="17.7256789">
        <ele>27.5349</ele>
        <time>2014-06-23T11:54:25Z</time>
      </trkpt>
      <trkpt lat="59.9764305" lon="17.7257038">
        <ele>27.0543</ele>
        <time>2014-06-23T11:54:26Z</time>
      </trkpt>
      <trkpt lat="59.976408" lon="17.7257306">
        <ele>27.0543</ele>
        <time>2014-06-23T11:54:27Z</time>
      </trkpt>
      <trkpt lat="59.9763883" lon="17.7257549">
        <ele>28.0155</ele>
        <time>2014-06-23T11:54:28Z</time>
      </trkpt>
      <trkpt lat="59.9763662" lon="17.7257781">
        <ele>27.5349</ele>
        <time>2014-06-23T11:54:29Z</time>
      </trkpt>
      <trkpt lat="59.9763419" lon="17.7258012">
        <ele>28.0155</ele>
        <time>2014-06-23T11:54:30Z</time>
      </trkpt>
      <trkpt lat="59.9763178" lon="17.7258259">
        <ele>27.5349</ele>
        <time>2014-06-23T11:54:31Z</time>
      </trkpt>
      <trkpt lat="59.9762951" lon="17.7258482">
        <ele>28.0155</ele>
        <time>2014-06-23T11:54:32Z</time>
      </trkpt>
      <trkpt lat="59.9762714" lon="17.7258659">
        <ele>27.5349</ele>
        <time>2014-06-23T11:54:33Z</time>
      </trkpt>
      <trkpt lat="59.9762489" lon="17.7258818">
        <ele>27.5349</ele>
        <time>2014-06-23T11:54:34Z</time>
      </trkpt>
      <trkpt lat="59.9762277" lon="17.7259061">
        <ele>27.0543</ele>
        <time>2014-06-23T11:54:35Z</time>
      </trkpt>
      <trkpt lat="59.9762076" lon="17.7259265">
        <ele>27.0543</ele>
        <time>2014-06-23T11:54:36Z</time>
      </trkpt>
      <trkpt lat="59.9761845" lon="17.7259497">
        <ele>27.5349</ele>
        <time>2014-06-23T11:54:37Z</time>
      </trkpt>
      <trkpt lat="59.9761626" lon="17.7259736">
        <ele>27.5349</ele>
        <time>2014-06-23T11:54:38Z</time>
      </trkpt>
      <trkpt lat="59.9761417" lon="17.7259946">
        <ele>27.5349</ele>
        <time>2014-06-23T11:54:39Z</time>
      </trkpt>
      <trkpt lat="59.9761223" lon="17.7260165">
        <ele>27.5349</ele>
        <time>2014-06-23T11:54:40Z</time>
      </trkpt>
      <trkpt lat="59.9760973" lon="17.726042">
        <ele>26.5736</ele>
        <time>2014-06-23T11:54:41Z</time>
      </trkpt>
      <trkpt lat="59.9760747" lon="17.7260621">
        <ele>26.5736</ele>
        <time>2014-06-23T11:54:42Z</time>
      </trkpt>
      <trkpt lat="59.9760528" lon="17.726086">
        <ele>26.5736</ele>
        <time>2014-06-23T11:54:43Z</time>
      </trkpt>
      <trkpt lat="59.9760299" lon="17.7261101">
        <ele>27.0543</ele>
        <time>2014-06-23T11:54:44Z</time>
      </trkpt>
      <trkpt lat="59.9760057" lon="17.726136">
        <ele>26.5736</ele>
        <time>2014-06-23T11:54:45Z</time>
      </trkpt>
      <trkpt lat="59.9759827" lon="17.7261601">
        <ele>26.0929</ele>
        <time>2014-06-23T11:54:46Z</time>
      </trkpt>
      <trkpt lat="59.9759592" lon="17.7261854">
        <ele>25.6123</ele>
        <time>2014-06-23T11:54:47Z</time>
      </trkpt>
      <trkpt lat="59.9759373" lon="17.7262165">
        <ele>25.6123</ele>
        <time>2014-06-23T11:54:48Z</time>
      </trkpt>
      <trkpt lat="59.9759165" lon="17.7262435">
        <ele>25.6123</ele>
        <time>2014-06-23T11:54:49Z</time>
      </trkpt>
      <trkpt lat="59.9758938" lon="17.7262707">
        <ele>25.6123</ele>
        <time>2014-06-23T11:54:50Z</time>
      </trkpt>
      <trkpt lat="59.9758689" lon="17.7262992">
        <ele>25.1317</ele>
        <time>2014-06-23T11:54:51Z</time>
      </trkpt>
      <trkpt lat="59.9758461" lon="17.7263231">
        <ele>25.6123</ele>
        <time>2014-06-23T11:54:52Z</time>
      </trkpt>
      <trkpt lat="59.9758269" lon="17.726346">
        <ele>26.0929</ele>
        <time>2014-06-23T11:54:53Z</time>
      </trkpt>
      <trkpt lat="59.9758047" lon="17.7263705">
        <ele>25.1317</ele>
        <time>2014-06-23T11:54:54Z</time>
      </trkpt>
      <trkpt lat="59.9757834" lon="17.7263942">
        <ele>25.1317</ele>
        <time>2014-06-23T11:54:55Z</time>
      </trkpt>
      <trkpt lat="59.9757607" lon="17.7264197">
        <ele>25.1317</ele>
        <time>2014-06-23T11:54:56Z</time>
      </trkpt>
      <trkpt lat="59.9757372" lon="17.7264414">
        <ele>25.1317</ele>
        <time>2014-06-23T11:54:57Z</time>
      </trkpt>
      <trkpt lat="59.9757123" lon="17.7264626">
        <ele>24.651</ele>
        <time>2014-06-23T11:54:58Z</time>
      </trkpt>
      <trkpt lat="59.9756869" lon="17.7264823">
        <ele>24.651</ele>
        <time>2014-06-23T11:54:59Z</time>
      </trkpt>
      <trkpt lat="59.9756643" lon="17.7265039">
        <ele>24.651</ele>
        <time>2014-06-23T11:55:00Z</time>
      </trkpt>
      <trkpt lat="59.975644" lon="17.7265303">
        <ele>24.1703</ele>
        <time>2014-06-23T11:55:01Z</time>
      </trkpt>
      <trkpt lat="59.9756187" lon="17.7265553">
        <ele>24.1703</ele>
        <time>2014-06-23T11:55:02Z</time>
      </trkpt>
      <trkpt lat="59.9755918" lon="17.7265792">
        <ele>24.1703</ele>
        <time>2014-06-23T11:55:03Z</time>
      </trkpt>
      <trkpt lat="59.9755641" lon="17.7266076">
        <ele>24.1703</ele>
        <time>2014-06-23T11:55:04Z</time>
      </trkpt>
      <trkpt lat="59.9755417" lon="17.7266382">
        <ele>24.651</ele>
        <time>2014-06-23T11:55:05Z</time>
      </trkpt>
      <trkpt lat="59.9755188" lon="17.7266691">
        <ele>24.1703</ele>
        <time>2014-06-23T11:55:06Z</time>
      </trkpt>
      <trkpt lat="59.975494" lon="17.7266946">
        <ele>24.1703</ele>
        <time>2014-06-23T11:55:07Z</time>
      </trkpt>
      <trkpt lat="59.9754726" lon="17.7267217">
        <ele>24.1703</ele>
        <time>2014-06-23T11:55:08Z</time>
      </trkpt>
      <trkpt lat="59.9754494" lon="17.7267491">
        <ele>24.651</ele>
        <time>2014-06-23T11:55:09Z</time>
      </trkpt>
      <trkpt lat="59.9754219" lon="17.7267779">
        <ele>24.1703</ele>
        <time>2014-06-23T11:55:10Z</time>
      </trkpt>
      <trkpt lat="59.975397" lon="17.726804">
        <ele>24.651</ele>
        <time>2014-06-23T11:55:11Z</time>
      </trkpt>
      <trkpt lat="59.9753716" lon="17.7268284">
        <ele>23.6896</ele>
        <time>2014-06-23T11:55:12Z</time>
      </trkpt>
      <trkpt lat="59.9753438" lon="17.726855">
        <ele>23.209</ele>
        <time>2014-06-23T11:55:13Z</time>
      </trkpt>
      <trkpt lat="59.9753199" lon="17.7268801">
        <ele>23.209</ele>
        <time>2014-06-23T11:55:14Z</time>
      </trkpt>
      <trkpt lat="59.9752987" lon="17.7269012">
        <ele>23.209</ele>
        <time>2014-06-23T11:55:15Z</time>
      </trkpt>
      <trkpt lat="59.9752746" lon="17.7269256">
        <ele>22.7283</ele>
        <time>2014-06-23T11:55:16Z</time>
      </trkpt>
      <trkpt lat="59.975249" lon="17.7269488">
        <ele>22.7283</ele>
        <time>2014-06-23T11:55:17Z</time>
      </trkpt>
      <trkpt lat="59.9752249" lon="17.7269744">
        <ele>22.2476</ele>
        <time>2014-06-23T11:55:18Z</time>
      </trkpt>
      <trkpt lat="59.9752028" lon="17.7269998">
        <ele>22.7283</ele>
        <time>2014-06-23T11:55:19Z</time>
      </trkpt>
      <trkpt lat="59.9751813" lon="17.727022">
        <ele>22.7283</ele>
        <time>2014-06-23T11:55:20Z</time>
      </trkpt>
      <trkpt lat="59.975157" lon="17.7270464">
        <ele>23.209</ele>
        <time>2014-06-23T11:55:21Z</time>
      </trkpt>
      <trkpt lat="59.9751329" lon="17.7270709">
        <ele>23.209</ele>
        <time>2014-06-23T11:55:22Z</time>
      </trkpt>
      <trkpt lat="59.9751117" lon="17.7270919">
        <ele>23.209</ele>
        <time>2014-06-23T11:55:23Z</time>
      </trkpt>
      <trkpt lat="59.975086" lon="17.7271154">
        <ele>23.6896</ele>
        <time>2014-06-23T11:55:24Z</time>
      </trkpt>
    </trkseg>
  </trk>
</gpx>